Time,TemperatureF,DewpointF,PressureIn,WindDirection,WindDirectionDegrees,WindSpeedMPH,WindSpeedGustMPH,Humidity,HourlyPrecipIn,Conditions,Clouds,dailyrainin,SoftwareType,DateUTC
2013-08-30 00:00:00,89.2,69.2,29.88,SE,135,0.0,2.4,52,0.00,,,0.00,WUHU216HW,2013-08-30 04:00:00,
2013-08-30 00:01:00,89.2,69.2,29.88,SE,135,0.0,2.4,52,0.00,,,0.00,WUHU216HW,2013-08-30 04:01:00,
2013-08-30 00:02:00,88.7,69.3,29.88,SE,135,0.0,2.4,53,0.00,,,0.00,WUHU216HW,2013-08-30 04:02:00,
2013-08-30 00:03:00,88.7,69.3,29.88,SE,135,0.0,2.4,53,0.00,,,0.00,WUHU216HW,2013-08-30 04:03:00,
2013-08-30 00:04:00,88.5,69.1,29.88,SSE,158,0.0,2.4,53,0.00,,,0.00,WUHU216HW,2013-08-30 04:04:00,
2013-08-30 00:05:00,88.5,69.1,29.88,SSE,158,0.0,2.4,53,0.00,,,0.00,WUHU216HW,2013-08-30 04:05:00,
2013-08-30 00:06:00,88.5,69.1,29.88,SSE,158,0.0,0.0,53,0.00,,,0.00,WUHU216HW,2013-08-30 04:06:00,
2013-08-30 00:07:00,88.5,69.1,29.88,SSE,158,0.0,0.0,53,0.00,,,0.00,WUHU216HW,2013-08-30 04:07:00,
2013-08-30 00:08:00,88.5,69.1,29.88,SSE,158,0.0,0.0,53,0.00,,,0.00,WUHU216HW,2013-08-30 04:08:00,
2013-08-30 00:09:00,88.3,69.0,29.88,SSE,158,0.0,0.0,53,0.00,,,0.00,WUHU216HW,2013-08-30 04:09:00,
2013-08-30 00:10:00,88.3,69.0,29.88,SSE,158,0.0,0.0,53,0.00,,,0.00,WUHU216HW,2013-08-30 04:10:00,
2013-08-30 00:11:00,88.3,69.0,29.88,SSE,158,0.0,0.0,53,0.00,,,0.00,WUHU216HW,2013-08-30 04:11:00,
2013-08-30 00:12:00,88.3,69.0,29.88,SSE,158,0.0,0.0,53,0.00,,,0.00,WUHU216HW,2013-08-30 04:12:00,
2013-08-30 00:13:00,88.3,69.0,29.88,SSE,158,0.0,0.0,53,0.00,,,0.00,WUHU216HW,2013-08-30 04:13:00,
2013-08-30 00:14:00,88.3,69.0,29.87,SSE,158,0.0,0.0,53,0.00,,,0.00,WUHU216HW,2013-08-30 04:14:00,
2013-08-30 00:15:00,88.3,69.0,29.88,North,0,0.0,0.0,53,0.00,,,0.00,WUHU216HW,2013-08-30 04:15:00,
2013-08-30 00:16:00,74.6,69.2,29.73,NNE,23,0.0,0.0,83,0.00,,,0.00,WUHU216HW,2013-08-30 04:16:00,
2013-08-30 00:17:00,88.5,69.1,29.87,NNE,23,0.0,0.0,53,0.00,,,0.00,WUHU216HW,2013-08-30 04:17:00,
2013-08-30 00:19:00,88.5,69.1,29.87,NE,45,0.0,0.0,53,0.00,,,0.00,WUHU216HW,2013-08-30 04:19:00,
2013-08-30 00:20:00,88.5,69.1,29.87,NE,45,0.0,0.0,53,0.00,,,0.00,WUHU216HW,2013-08-30 04:20:00,
2013-08-30 00:21:00,88.5,69.1,29.87,NE,45,0.0,0.0,53,0.00,,,0.00,WUHU216HW,2013-08-30 04:21:00,
2013-08-30 00:22:00,74.4,69.3,29.73,NNE,23,0.0,0.0,84,0.00,,,0.00,WUHU216HW,2013-08-30 04:22:00,
2013-08-30 00:23:00,88.5,69.1,29.87,NE,45,0.0,0.0,53,0.00,,,0.00,WUHU216HW,2013-08-30 04:23:00,
2013-08-30 00:24:00,88.5,69.1,29.87,NE,45,0.0,0.0,54,0.00,,,0.00,WUHU216HW,2013-08-30 04:24:00,
2013-08-30 00:25:00,88.5,69.1,29.87,NE,45,0.0,0.0,54,0.00,,,0.00,WUHU216HW,2013-08-30 04:25:00,
2013-08-30 00:26:00,88.5,69.1,29.87,NE,45,0.0,0.0,53,0.00,,,0.00,WUHU216HW,2013-08-30 04:26:00,
2013-08-30 00:27:00,74.3,69.1,29.72,NNE,23,0.0,0.0,84,0.00,,,0.00,WUHU216HW,2013-08-30 04:27:00,
2013-08-30 00:28:00,88.5,69.1,29.87,NE,45,0.0,0.0,53,0.00,,,0.00,WUHU216HW,2013-08-30 04:28:00,
2013-08-30 00:29:00,88.5,69.1,29.87,NE,45,0.0,0.0,53,0.00,,,0.00,WUHU216HW,2013-08-30 04:29:00,
2013-08-30 00:30:00,88.5,69.1,29.87,NE,45,0.0,0.0,53,0.00,,,0.00,WUHU216HW,2013-08-30 04:30:00,
2013-08-30 00:32:00,74.1,69.0,29.73,NNE,23,0.0,0.0,84,0.00,,,0.00,WUHU216HW,2013-08-30 04:32:00,
2013-08-30 00:33:00,88.5,69.1,29.87,ESE,113,0.0,0.0,53,0.00,,,0.00,WUHU216HW,2013-08-30 04:33:00,
2013-08-30 00:34:00,88.5,69.1,29.87,ESE,113,0.0,0.0,53,0.00,,,0.00,WUHU216HW,2013-08-30 04:34:00,
2013-08-30 00:35:00,88.5,69.1,29.87,ESE,113,0.0,0.0,53,0.00,,,0.00,WUHU216HW,2013-08-30 04:35:00,
2013-08-30 00:36:00,88.3,69.5,29.87,ESE,113,0.0,0.0,54,0.00,,,0.00,WUHU216HW,2013-08-30 04:36:00,
2013-08-30 00:37:00,74.1,69.0,29.74,NNE,23,0.0,0.0,84,0.00,,,0.00,WUHU216HW,2013-08-30 04:37:00,
2013-08-30 00:38:00,88.5,69.7,29.87,ENE,68,0.0,0.0,54,0.00,,,0.00,WUHU216HW,2013-08-30 04:38:00,
2013-08-30 00:39:00,88.5,69.7,29.87,ENE,68,0.0,0.0,54,0.00,,,0.00,WUHU216HW,2013-08-30 04:39:00,
2013-08-30 00:40:00,88.5,69.7,29.87,ENE,68,0.0,0.0,54,0.00,,,0.00,WUHU216HW,2013-08-30 04:40:00,
2013-08-30 00:41:00,88.5,69.7,29.87,ESE,113,0.0,0.0,53,0.00,,,0.00,WUHU216HW,2013-08-30 04:41:00,
2013-08-30 00:42:00,74.1,69.0,29.74,NNE,23,0.0,0.0,84,0.00,,,0.00,WUHU216HW,2013-08-30 04:42:00,
2013-08-30 00:43:00,88.5,69.7,29.87,ESE,113,0.0,0.0,53,0.00,,,0.00,WUHU216HW,2013-08-30 04:43:00,
2013-08-30 00:44:00,88.5,69.7,29.87,ESE,113,0.0,0.0,53,0.00,,,0.00,WUHU216HW,2013-08-30 04:44:00,
2013-08-30 00:45:00,88.5,69.7,29.86,SE,135,0.0,0.0,53,0.00,,,0.00,WUHU216HW,2013-08-30 04:45:00,
2013-08-30 00:46:00,88.5,69.7,29.86,SE,135,0.0,0.0,53,0.00,,,0.00,WUHU216HW,2013-08-30 04:46:00,
2013-08-30 00:47:00,73.9,69.1,29.74,NNE,23,0.0,0.0,85,0.00,,,0.00,WUHU216HW,2013-08-30 04:47:00,
2013-08-30 00:48:00,88.5,69.7,29.86,SE,135,0.0,0.0,53,0.00,,,0.00,WUHU216HW,2013-08-30 04:48:00,
2013-08-30 00:49:00,88.5,69.7,29.86,SE,135,0.0,0.0,52,0.00,,,0.00,WUHU216HW,2013-08-30 04:49:00,
2013-08-30 00:50:00,88.5,69.7,29.86,SE,135,0.0,0.0,52,0.00,,,0.00,WUHU216HW,2013-08-30 04:50:00,
2013-08-30 00:51:00,88.5,69.7,29.86,SE,135,0.0,0.0,52,0.00,,,0.00,WUHU216HW,2013-08-30 04:51:00,
2013-08-30 00:52:00,73.7,68.9,29.74,NNE,23,0.0,0.0,85,0.00,,,0.00,WUHU216HW,2013-08-30 04:52:00,
2013-08-30 00:53:00,88.7,68.8,29.86,SE,135,0.0,0.0,52,0.00,,,0.00,WUHU216HW,2013-08-30 04:53:00,
2013-08-30 00:54:00,88.7,68.8,29.86,SE,135,0.0,0.0,52,0.00,,,0.00,WUHU216HW,2013-08-30 04:54:00,
2013-08-30 00:55:00,88.5,68.6,29.86,SSE,158,0.0,0.0,52,0.00,,,0.00,WUHU216HW,2013-08-30 04:55:00,
2013-08-30 00:57:00,73.7,68.9,29.74,NNE,23,0.0,0.0,85,0.00,,,0.00,WUHU216HW,2013-08-30 04:57:00,
2013-08-30 00:58:00,88.5,68.6,29.86,SSE,158,0.0,0.0,52,0.00,,,0.00,WUHU216HW,2013-08-30 04:58:00,
2013-08-30 00:59:00,88.5,68.6,29.86,SSE,158,0.0,0.0,52,0.00,,,0.00,WUHU216HW,2013-08-30 04:59:00,
2013-08-30 01:00:00,88.5,68.6,29.86,SSE,158,0.0,0.0,52,0.00,,,0.00,WUHU216HW,2013-08-30 05:00:00,
2013-08-30 01:01:00,88.5,68.6,29.86,SSE,158,0.0,0.0,52,0.00,,,0.00,WUHU216HW,2013-08-30 05:01:00,
2013-08-30 01:02:00,73.5,68.8,29.74,NNE,23,0.0,0.0,85,0.00,,,0.00,WUHU216HW,2013-08-30 05:02:00,
2013-08-30 01:03:00,88.5,68.6,29.86,SSE,158,0.0,0.0,52,0.00,,,0.00,WUHU216HW,2013-08-30 05:03:00,
2013-08-30 01:04:00,88.5,68.6,29.86,SSE,158,0.0,0.0,52,0.00,,,0.00,WUHU216HW,2013-08-30 05:04:00,
2013-08-30 01:05:00,88.3,68.4,29.86,SW,225,0.0,0.0,52,0.00,,,0.00,WUHU216HW,2013-08-30 05:05:00,
2013-08-30 01:06:00,88.3,68.4,29.86,South,180,0.0,0.0,53,0.00,,,0.00,WUHU216HW,2013-08-30 05:06:00,
2013-08-30 01:07:00,88.3,68.4,29.86,South,180,0.0,0.0,53,0.00,,,0.00,WUHU216HW,2013-08-30 05:07:00,
2013-08-30 01:08:00,73.5,68.8,29.74,NNE,23,0.0,0.0,85,0.00,,,0.00,WUHU216HW,2013-08-30 05:08:00,
2013-08-30 01:09:00,88.1,68.3,29.86,South,180,0.0,0.0,52,0.00,,,0.00,WUHU216HW,2013-08-30 05:09:00,
2013-08-30 01:10:00,88.1,68.3,29.86,SSE,158,0.0,0.0,53,0.00,,,0.00,WUHU216HW,2013-08-30 05:10:00,
2013-08-30 01:11:00,88.1,68.3,29.86,SSE,158,0.0,0.0,53,0.00,,,0.00,WUHU216HW,2013-08-30 05:11:00,
2013-08-30 01:12:00,88.1,68.3,29.86,SSE,158,0.0,0.0,53,0.00,,,0.00,WUHU216HW,2013-08-30 05:12:00,
2013-08-30 01:13:00,73.2,68.4,29.73,NNE,23,0.0,0.0,85,0.00,,,0.00,WUHU216HW,2013-08-30 05:13:00,
2013-08-30 01:14:00,88.1,68.3,29.86,SSE,158,0.0,0.0,53,0.00,,,0.00,WUHU216HW,2013-08-30 05:14:00,
2013-08-30 01:15:00,88.1,68.3,29.86,SSE,158,0.0,0.0,52,0.00,,,0.00,WUHU216HW,2013-08-30 05:15:00,
2013-08-30 01:16:00,88.1,68.3,29.86,SSE,158,0.0,0.0,52,0.00,,,0.00,WUHU216HW,2013-08-30 05:16:00,
2013-08-30 01:17:00,87.9,68.7,29.86,South,180,0.0,0.0,53,0.00,,,0.00,WUHU216HW,2013-08-30 05:17:00,
2013-08-30 01:18:00,73.0,68.2,29.73,NNE,23,0.0,0.0,86,0.00,,,0.00,WUHU216HW,2013-08-30 05:18:00,
2013-08-30 01:19:00,87.9,68.7,29.86,South,180,0.0,0.0,53,0.00,,,0.00,WUHU216HW,2013-08-30 05:19:00,
2013-08-30 01:20:00,87.9,68.7,29.86,NE,45,0.0,0.0,53,0.00,,,0.00,WUHU216HW,2013-08-30 05:20:00,
2013-08-30 01:21:00,87.9,68.7,29.86,NE,45,0.0,0.0,53,0.00,,,0.00,WUHU216HW,2013-08-30 05:21:00,
2013-08-30 01:22:00,87.9,68.7,29.86,NE,45,0.0,0.0,52,0.00,,,0.00,WUHU216HW,2013-08-30 05:22:00,
2013-08-30 01:23:00,73.0,68.2,29.72,NNE,23,0.0,0.0,85,0.00,,,0.00,WUHU216HW,2013-08-30 05:23:00,
2013-08-30 01:24:00,87.9,68.7,29.86,ENE,68,0.0,0.0,52,0.00,,,0.00,WUHU216HW,2013-08-30 05:24:00,
2013-08-30 01:25:00,87.9,68.7,29.86,ENE,68,0.0,0.0,52,0.00,,,0.00,WUHU216HW,2013-08-30 05:25:00,
2013-08-30 01:26:00,87.9,68.7,29.86,ENE,68,0.0,0.0,53,0.00,,,0.00,WUHU216HW,2013-08-30 05:26:00,
2013-08-30 01:27:00,87.9,68.7,29.86,ENE,68,0.0,0.0,53,0.00,,,0.00,WUHU216HW,2013-08-30 05:27:00,
2013-08-30 01:28:00,73.0,68.2,29.73,NNE,23,0.0,0.0,86,0.00,,,0.00,WUHU216HW,2013-08-30 05:28:00,
2013-08-30 01:29:00,87.8,68.5,29.86,ENE,68,0.0,0.0,53,0.00,,,0.00,WUHU216HW,2013-08-30 05:29:00,
2013-08-30 01:30:00,87.9,68.7,29.86,ENE,68,0.0,0.0,53,0.00,,,0.00,WUHU216HW,2013-08-30 05:30:00,
2013-08-30 01:31:00,87.9,68.7,29.86,ENE,68,0.0,0.0,53,0.00,,,0.00,WUHU216HW,2013-08-30 05:31:00,
2013-08-30 01:32:00,87.8,68.5,29.86,SE,135,0.0,0.0,53,0.00,,,0.00,WUHU216HW,2013-08-30 05:32:00,
2013-08-30 01:33:00,72.8,68.4,29.73,NNE,23,0.0,0.0,86,0.00,,,0.00,WUHU216HW,2013-08-30 05:33:00,
2013-08-30 01:35:00,87.6,67.8,29.86,SE,135,0.0,0.0,52,0.00,,,0.00,WUHU216HW,2013-08-30 05:35:00,
2013-08-30 01:36:00,87.6,67.8,29.86,SE,135,0.0,0.0,52,0.00,,,0.00,WUHU216HW,2013-08-30 05:36:00,
2013-08-30 01:37:00,87.6,67.8,29.86,SE,135,0.0,0.0,52,0.00,,,0.00,WUHU216HW,2013-08-30 05:37:00,
2013-08-30 01:38:00,72.6,68.2,29.73,NNE,23,0.0,0.0,86,0.00,,,0.00,WUHU216HW,2013-08-30 05:38:00,
2013-08-30 01:39:00,87.6,67.8,29.86,SE,135,0.0,0.0,52,0.00,,,0.00,WUHU216HW,2013-08-30 05:39:00,
2013-08-30 01:40:00,87.6,67.8,29.87,SE,135,0.0,0.0,52,0.00,,,0.00,WUHU216HW,2013-08-30 05:40:00,
2013-08-30 01:41:00,87.4,67.6,29.87,SE,135,0.0,0.0,52,0.00,,,0.00,WUHU216HW,2013-08-30 05:41:00,
2013-08-30 01:44:00,72.6,68.2,29.73,NNE,23,0.0,0.0,86,0.00,,,0.00,WUHU216HW,2013-08-30 05:44:00,
2013-08-30 01:45:00,87.4,67.6,29.86,SE,135,0.0,0.0,53,0.00,,,0.00,WUHU216HW,2013-08-30 05:45:00,
2013-08-30 01:46:00,87.4,67.6,29.86,SE,135,0.0,0.0,53,0.00,,,0.00,WUHU216HW,2013-08-30 05:46:00,
2013-08-30 01:47:00,87.4,67.6,29.86,SE,135,0.0,0.0,53,0.00,,,0.00,WUHU216HW,2013-08-30 05:47:00,
2013-08-30 01:48:00,87.2,68.0,29.86,SE,135,0.0,0.0,53,0.00,,,0.00,WUHU216HW,2013-08-30 05:48:00,
2013-08-30 01:49:00,72.5,68.0,29.73,NNE,23,0.0,0.0,86,0.00,,,0.00,WUHU216HW,2013-08-30 05:49:00,
2013-08-30 01:51:00,87.2,68.0,29.86,SE,135,0.0,0.0,53,0.00,,,0.00,WUHU216HW,2013-08-30 05:51:00,
2013-08-30 01:52:00,87.0,67.8,29.86,SE,135,0.0,0.0,53,0.00,,,0.00,WUHU216HW,2013-08-30 05:52:00,
2013-08-30 01:54:00,72.3,67.8,29.73,NNE,23,0.0,0.0,86,0.00,,,0.00,WUHU216HW,2013-08-30 05:54:00,
2013-08-30 01:55:00,87.0,67.8,29.86,SE,135,0.0,0.0,53,0.00,,,0.00,WUHU216HW,2013-08-30 05:55:00,
2013-08-30 01:56:00,87.0,67.8,29.86,SE,135,0.0,0.0,53,0.00,,,0.00,WUHU216HW,2013-08-30 05:56:00,
2013-08-30 01:57:00,87.0,67.8,29.86,SE,135,0.0,0.0,53,0.00,,,0.00,WUHU216HW,2013-08-30 05:57:00,
2013-08-30 01:59:00,72.3,67.8,29.73,NNE,23,0.0,0.0,87,0.00,,,0.00,WUHU216HW,2013-08-30 05:59:00,
2013-08-30 02:00:00,87.0,67.8,29.87,SE,135,0.0,0.0,54,0.00,,,0.00,WUHU216HW,2013-08-30 06:00:00,
2013-08-30 02:01:00,87.0,67.8,29.86,SE,135,0.0,0.0,54,0.00,,,0.00,WUHU216HW,2013-08-30 06:01:00,
2013-08-30 02:02:00,87.0,67.8,29.86,SE,135,0.0,0.0,55,0.00,,,0.00,WUHU216HW,2013-08-30 06:02:00,
2013-08-30 02:03:00,87.0,67.8,29.86,SE,135,0.0,0.0,55,0.00,,,0.00,WUHU216HW,2013-08-30 06:03:00,
2013-08-30 02:04:00,72.3,67.8,29.73,NNE,23,0.0,0.0,87,0.00,,,0.00,WUHU216HW,2013-08-30 06:04:00,
2013-08-30 02:05:00,86.9,68.2,29.86,SE,135,0.0,0.0,54,0.00,,,0.00,WUHU216HW,2013-08-30 06:05:00,
2013-08-30 02:06:00,86.9,68.2,29.86,SE,135,0.0,0.0,54,0.00,,,0.00,WUHU216HW,2013-08-30 06:06:00,
2013-08-30 02:07:00,86.9,68.2,29.87,SSE,158,0.0,0.0,54,0.00,,,0.00,WUHU216HW,2013-08-30 06:07:00,
2013-08-30 02:08:00,86.9,68.2,29.86,SSE,158,0.0,0.0,54,0.00,,,0.00,WUHU216HW,2013-08-30 06:08:00,
2013-08-30 02:09:00,86.9,68.2,29.86,SSE,158,0.0,0.0,54,0.00,,,0.00,WUHU216HW,2013-08-30 06:09:00,
2013-08-30 02:10:00,72.3,67.8,29.73,NNE,23,0.0,0.0,87,0.00,,,0.00,WUHU216HW,2013-08-30 06:10:00,
2013-08-30 02:12:00,86.9,68.2,29.86,SSE,158,0.0,0.0,55,0.00,,,0.00,WUHU216HW,2013-08-30 06:12:00,
2013-08-30 02:13:00,86.9,68.2,29.86,SSE,158,0.0,0.0,55,0.00,,,0.00,WUHU216HW,2013-08-30 06:13:00,
2013-08-30 02:14:00,86.9,68.2,29.86,SSE,158,0.0,0.0,55,0.00,,,0.00,WUHU216HW,2013-08-30 06:14:00,
2013-08-30 02:15:00,71.9,67.8,29.73,North,0,0.0,0.0,87,0.00,,,0.00,WUHU216HW,2013-08-30 06:15:00,
2013-08-30 02:16:00,86.9,68.2,29.86,SSE,158,0.0,0.0,56,0.00,,,0.00,WUHU216HW,2013-08-30 06:16:00,
2013-08-30 02:17:00,86.9,68.2,29.86,SSE,158,0.0,0.0,56,0.00,,,0.00,WUHU216HW,2013-08-30 06:17:00,
2013-08-30 02:18:00,86.9,68.2,29.86,SSE,158,0.0,0.0,56,0.00,,,0.00,WUHU216HW,2013-08-30 06:18:00,
2013-08-30 02:19:00,86.9,68.2,29.86,SSE,158,0.0,0.0,56,0.00,,,0.00,WUHU216HW,2013-08-30 06:19:00,
2013-08-30 02:20:00,86.7,69.6,29.86,SSE,158,0.0,0.0,57,0.00,,,0.00,WUHU216HW,2013-08-30 06:20:00,
2013-08-30 02:21:00,71.7,67.6,29.72,North,0,0.0,0.0,87,0.00,,,0.00,WUHU216HW,2013-08-30 06:21:00,
2013-08-30 02:23:00,86.7,69.6,29.86,ENE,68,0.0,0.0,57,0.00,,,0.00,WUHU216HW,2013-08-30 06:23:00,
2013-08-30 02:24:00,86.7,69.6,29.86,SE,135,0.0,0.0,57,0.00,,,0.00,WUHU216HW,2013-08-30 06:24:00,
2013-08-30 02:25:00,86.7,69.6,29.86,SE,135,0.0,0.0,57,0.00,,,0.00,WUHU216HW,2013-08-30 06:25:00,
2013-08-30 02:26:00,71.7,67.6,29.72,North,0,0.0,0.0,87,0.00,,,0.00,WUHU216HW,2013-08-30 06:26:00,
2013-08-30 02:27:00,86.5,68.9,29.86,SE,135,0.0,0.0,56,0.00,,,0.00,WUHU216HW,2013-08-30 06:27:00,
2013-08-30 02:28:00,86.5,68.9,29.86,ESE,113,0.0,0.0,56,0.00,,,0.00,WUHU216HW,2013-08-30 06:28:00,
2013-08-30 02:29:00,86.5,68.9,29.86,ESE,113,0.0,0.0,56,0.00,,,0.00,WUHU216HW,2013-08-30 06:29:00,
2013-08-30 02:30:00,86.5,68.9,29.86,ESE,113,0.0,0.0,56,0.00,,,0.00,WUHU216HW,2013-08-30 06:30:00,
2013-08-30 02:31:00,71.6,67.5,29.72,North,0,0.0,0.0,87,0.00,,,0.00,WUHU216HW,2013-08-30 06:31:00,
2013-08-30 02:32:00,86.5,68.9,29.86,SSE,158,0.0,0.0,56,0.00,,,0.00,WUHU216HW,2013-08-30 06:32:00,
2013-08-30 02:33:00,86.5,68.9,29.86,SE,135,0.0,0.0,56,0.00,,,0.00,WUHU216HW,2013-08-30 06:33:00,
2013-08-30 02:34:00,86.5,68.9,29.86,SE,135,0.0,0.0,56,0.00,,,0.00,WUHU216HW,2013-08-30 06:34:00,
2013-08-30 02:35:00,86.5,68.9,29.86,SE,135,0.0,0.0,56,0.00,,,0.00,WUHU216HW,2013-08-30 06:35:00,
2013-08-30 02:36:00,71.4,67.3,29.73,North,0,0.0,0.0,87,0.00,,,0.00,WUHU216HW,2013-08-30 06:36:00,
2013-08-30 02:37:00,86.5,68.9,29.86,NNE,23,0.0,0.0,56,0.00,,,0.00,WUHU216HW,2013-08-30 06:37:00,
2013-08-30 02:38:00,86.5,68.9,29.86,NNE,23,0.0,0.0,56,0.00,,,0.00,WUHU216HW,2013-08-30 06:38:00,
2013-08-30 02:39:00,86.3,68.7,29.87,NNE,23,0.0,0.0,56,0.00,,,0.00,WUHU216HW,2013-08-30 06:39:00,
2013-08-30 02:40:00,86.3,68.7,29.87,NNE,23,0.0,0.0,56,0.00,,,0.00,WUHU216HW,2013-08-30 06:40:00,
2013-08-30 02:41:00,71.4,67.3,29.73,North,0,0.0,0.0,87,0.00,,,0.00,WUHU216HW,2013-08-30 06:41:00,
2013-08-30 02:42:00,86.3,68.7,29.86,NNE,23,0.0,0.0,56,0.00,,,0.00,WUHU216HW,2013-08-30 06:42:00,
2013-08-30 02:43:00,86.3,68.7,29.86,North,0,0.0,0.0,55,0.00,,,0.00,WUHU216HW,2013-08-30 06:43:00,
2013-08-30 02:44:00,86.3,68.7,29.86,North,0,0.0,0.0,55,0.00,,,0.00,WUHU216HW,2013-08-30 06:44:00,
2013-08-30 02:46:00,71.4,67.3,29.72,North,0,0.0,0.0,87,0.00,,,0.00,WUHU216HW,2013-08-30 06:46:00,
2013-08-30 02:47:00,86.1,68.6,29.87,North,0,0.0,0.0,56,0.00,,,0.00,WUHU216HW,2013-08-30 06:47:00,
2013-08-30 02:48:00,86.1,68.6,29.87,West,270,0.0,0.0,56,0.00,,,0.00,WUHU216HW,2013-08-30 06:48:00,
2013-08-30 02:49:00,86.1,68.6,29.87,West,270,0.0,0.0,56,0.00,,,0.00,WUHU216HW,2013-08-30 06:49:00,
2013-08-30 02:50:00,86.0,67.9,29.86,WSW,248,0.0,0.0,55,0.00,,,0.00,WUHU216HW,2013-08-30 06:50:00,
2013-08-30 02:51:00,71.2,67.1,29.73,North,0,0.0,0.0,87,0.00,,,0.00,WUHU216HW,2013-08-30 06:51:00,
2013-08-30 02:52:00,85.8,67.7,29.86,WSW,248,0.0,0.0,55,0.00,,,0.00,WUHU216HW,2013-08-30 06:52:00,
2013-08-30 02:53:00,85.8,67.7,29.86,WSW,248,0.0,0.0,55,0.00,,,0.00,WUHU216HW,2013-08-30 06:53:00,
2013-08-30 02:54:00,85.8,67.7,29.86,WSW,248,0.0,0.0,55,0.00,,,0.00,WUHU216HW,2013-08-30 06:54:00,
2013-08-30 02:55:00,85.8,67.7,29.86,WSW,248,0.0,0.0,55,0.00,,,0.00,WUHU216HW,2013-08-30 06:55:00,
2013-08-30 02:56:00,71.2,67.1,29.73,North,0,0.0,0.0,87,0.00,,,0.00,WUHU216HW,2013-08-30 06:56:00,
2013-08-30 02:57:00,85.6,68.1,29.86,WSW,248,0.0,0.0,56,0.00,,,0.00,WUHU216HW,2013-08-30 06:57:00,
2013-08-30 02:58:00,85.6,68.1,29.86,WSW,248,0.0,0.0,56,0.00,,,0.00,WUHU216HW,2013-08-30 06:58:00,
2013-08-30 02:59:00,85.6,68.1,29.86,WSW,248,0.0,0.0,56,0.00,,,0.00,WUHU216HW,2013-08-30 06:59:00,
2013-08-30 03:00:00,85.6,68.1,29.87,WSW,248,0.0,0.0,56,0.00,,,0.00,WUHU216HW,2013-08-30 07:00:00,
2013-08-30 03:01:00,71.2,67.1,29.73,North,0,0.0,0.0,87,0.00,,,0.00,WUHU216HW,2013-08-30 07:01:00,
2013-08-30 03:02:00,85.6,68.1,29.86,WSW,248,0.0,0.0,56,0.00,,,0.00,WUHU216HW,2013-08-30 07:02:00,
2013-08-30 03:03:00,85.6,68.1,29.86,WSW,248,0.0,0.0,56,0.00,,,0.00,WUHU216HW,2013-08-30 07:03:00,
2013-08-30 03:05:00,85.4,67.9,29.86,WSW,248,0.0,0.0,56,0.00,,,0.00,WUHU216HW,2013-08-30 07:05:00,
2013-08-30 03:06:00,71.2,67.1,29.73,North,0,0.0,0.0,87,0.00,,,0.00,WUHU216HW,2013-08-30 07:06:00,
2013-08-30 03:07:00,85.2,67.7,29.86,WSW,248,0.0,0.0,56,0.00,,,0.00,WUHU216HW,2013-08-30 07:07:00,
2013-08-30 03:08:00,85.2,67.7,29.86,WSW,248,0.0,0.0,56,0.00,,,0.00,WUHU216HW,2013-08-30 07:08:00,
2013-08-30 03:09:00,85.2,67.7,29.86,WSW,248,0.0,0.0,56,0.00,,,0.00,WUHU216HW,2013-08-30 07:09:00,
2013-08-30 03:10:00,85.2,67.7,29.86,WSW,248,0.0,0.0,56,0.00,,,0.00,WUHU216HW,2013-08-30 07:10:00,
2013-08-30 03:11:00,71.0,66.9,29.72,North,0,0.0,0.0,87,0.00,,,0.00,WUHU216HW,2013-08-30 07:11:00,
2013-08-30 03:12:00,85.2,67.7,29.86,WSW,248,0.0,0.0,57,0.00,,,0.00,WUHU216HW,2013-08-30 07:12:00,
2013-08-30 03:13:00,85.1,68.1,29.86,WSW,248,0.0,0.0,57,0.00,,,0.00,WUHU216HW,2013-08-30 07:13:00,
2013-08-30 03:14:00,85.1,68.1,29.86,WSW,248,0.0,0.0,57,0.00,,,0.00,WUHU216HW,2013-08-30 07:14:00,
2013-08-30 03:15:00,85.1,68.1,29.86,WSW,248,0.0,0.0,57,0.00,,,0.00,WUHU216HW,2013-08-30 07:15:00,
2013-08-30 03:16:00,85.1,68.1,29.86,WSW,248,0.0,0.0,57,0.00,,,0.00,WUHU216HW,2013-08-30 07:16:00,
2013-08-30 03:17:00,70.8,66.7,29.73,North,0,0.0,0.0,87,0.00,,,0.00,WUHU216HW,2013-08-30 07:17:00,
2013-08-30 03:18:00,85.1,68.1,29.86,WSW,248,0.0,0.0,58,0.00,,,0.00,WUHU216HW,2013-08-30 07:18:00,
2013-08-30 03:19:00,85.1,68.1,29.86,WSW,248,0.0,0.0,58,0.00,,,0.00,WUHU216HW,2013-08-30 07:19:00,
2013-08-30 03:20:00,85.1,68.1,29.86,WSW,248,0.0,0.0,58,0.00,,,0.00,WUHU216HW,2013-08-30 07:20:00,
2013-08-30 03:21:00,84.9,68.5,29.86,WSW,248,0.0,0.0,58,0.00,,,0.00,WUHU216HW,2013-08-30 07:21:00,
2013-08-30 03:22:00,70.8,66.7,29.73,NW,315,0.0,0.0,87,0.00,,,0.00,WUHU216HW,2013-08-30 07:22:00,
2013-08-30 03:24:00,84.7,68.3,29.86,WSW,248,0.0,0.0,58,0.00,,,0.00,WUHU216HW,2013-08-30 07:24:00,
2013-08-30 03:26:00,84.7,68.3,29.86,WSW,248,0.0,0.0,58,0.00,,,0.00,WUHU216HW,2013-08-30 07:26:00,
2013-08-30 03:27:00,70.8,66.7,29.73,NW,315,0.0,0.0,87,0.00,,,0.00,WUHU216HW,2013-08-30 07:27:00,
2013-08-30 03:28:00,84.5,68.1,29.86,WSW,248,0.0,0.0,58,0.00,,,0.00,WUHU216HW,2013-08-30 07:28:00,
2013-08-30 03:29:00,84.5,68.1,29.86,WSW,248,0.0,0.0,58,0.00,,,0.00,WUHU216HW,2013-08-30 07:29:00,
2013-08-30 03:30:00,84.5,68.1,29.86,WSW,248,0.0,0.0,58,0.00,,,0.00,WUHU216HW,2013-08-30 07:30:00,
2013-08-30 03:31:00,84.5,68.1,29.86,WSW,248,0.0,0.0,58,0.00,,,0.00,WUHU216HW,2013-08-30 07:31:00,
2013-08-30 03:32:00,70.8,66.7,29.72,NW,315,0.0,0.0,87,0.00,,,0.00,WUHU216HW,2013-08-30 07:32:00,
2013-08-30 03:33:00,84.3,68.5,29.86,WSW,248,0.0,0.0,59,0.00,,,0.00,WUHU216HW,2013-08-30 07:33:00,
2013-08-30 03:34:00,84.3,68.5,29.86,WSW,248,0.0,0.0,59,0.00,,,0.00,WUHU216HW,2013-08-30 07:34:00,
2013-08-30 03:35:00,84.3,68.5,29.86,WSW,248,0.0,0.0,59,0.00,,,0.00,WUHU216HW,2013-08-30 07:35:00,
2013-08-30 03:36:00,84.3,68.5,29.86,WSW,248,0.0,0.0,59,0.00,,,0.00,WUHU216HW,2013-08-30 07:36:00,
2013-08-30 03:37:00,70.8,66.7,29.72,NW,315,0.0,0.0,87,0.00,,,0.00,WUHU216HW,2013-08-30 07:37:00,
2013-08-30 03:38:00,84.3,68.5,29.86,WSW,248,0.0,0.0,59,0.00,,,0.00,WUHU216HW,2013-08-30 07:38:00,
2013-08-30 03:39:00,84.0,68.2,29.86,WSW,248,0.0,0.0,59,0.00,,,0.00,WUHU216HW,2013-08-30 07:39:00,
2013-08-30 03:40:00,84.0,68.2,29.86,WSW,248,0.0,0.0,59,0.00,,,0.00,WUHU216HW,2013-08-30 07:40:00,
2013-08-30 03:41:00,84.0,68.2,29.87,WSW,248,0.0,0.0,59,0.00,,,0.00,WUHU216HW,2013-08-30 07:41:00,
2013-08-30 03:42:00,70.8,66.7,29.72,NW,315,0.0,0.0,87,0.00,,,0.00,WUHU216HW,2013-08-30 07:42:00,
2013-08-30 03:43:00,84.0,68.2,29.87,WSW,248,0.0,0.0,59,0.00,,,0.00,WUHU216HW,2013-08-30 07:43:00,
2013-08-30 03:44:00,84.0,68.2,29.87,WSW,248,0.0,0.0,60,0.00,,,0.00,WUHU216HW,2013-08-30 07:44:00,
2013-08-30 03:45:00,84.0,68.2,29.86,WSW,248,0.0,0.0,60,0.00,,,0.00,WUHU216HW,2013-08-30 07:45:00,
2013-08-30 03:46:00,83.8,68.0,29.87,WSW,248,0.0,0.0,59,0.00,,,0.00,WUHU216HW,2013-08-30 07:46:00,
2013-08-30 03:47:00,83.8,68.0,29.86,WSW,248,0.0,0.0,59,0.00,,,0.00,WUHU216HW,2013-08-30 07:47:00,
2013-08-30 03:48:00,70.8,66.7,29.73,NW,315,0.0,0.0,87,0.00,,,0.00,WUHU216HW,2013-08-30 07:48:00,
2013-08-30 03:49:00,83.8,68.0,29.86,WSW,248,0.0,0.0,60,0.00,,,0.00,WUHU216HW,2013-08-30 07:49:00,
2013-08-30 03:50:00,83.8,68.0,29.86,WSW,248,0.0,0.0,60,0.00,,,0.00,WUHU216HW,2013-08-30 07:50:00,
2013-08-30 03:51:00,83.8,68.0,29.86,WSW,248,0.0,0.0,60,0.00,,,0.00,WUHU216HW,2013-08-30 07:51:00,
2013-08-30 03:52:00,83.4,68.1,29.86,WSW,248,0.0,0.0,60,0.00,,,0.00,WUHU216HW,2013-08-30 07:52:00,
2013-08-30 03:53:00,70.8,66.7,29.72,NW,315,0.0,0.0,87,0.00,,,0.00,WUHU216HW,2013-08-30 07:53:00,
2013-08-30 03:54:00,83.4,68.1,29.86,WSW,248,0.0,0.0,60,0.00,,,0.00,WUHU216HW,2013-08-30 07:54:00,
2013-08-30 03:56:00,83.4,68.1,29.87,WSW,248,0.0,0.0,60,0.00,,,0.00,WUHU216HW,2013-08-30 07:56:00,
2013-08-30 03:57:00,83.4,68.1,29.87,WSW,248,0.0,0.0,60,0.00,,,0.00,WUHU216HW,2013-08-30 07:57:00,
2013-08-30 03:58:00,70.8,66.7,29.73,NW,315,0.0,0.0,87,0.00,,,0.00,WUHU216HW,2013-08-30 07:58:00,
2013-08-30 03:59:00,83.3,68.4,29.86,WSW,248,0.0,0.0,61,0.00,,,0.00,WUHU216HW,2013-08-30 07:59:00,
2013-08-30 04:00:00,83.3,68.4,29.86,WSW,248,0.0,0.0,61,0.00,,,0.00,WUHU216HW,2013-08-30 08:00:00,
2013-08-30 04:01:00,83.1,68.2,29.87,WSW,248,0.0,0.0,61,0.00,,,0.00,WUHU216HW,2013-08-30 08:01:00,
2013-08-30 04:02:00,83.1,68.2,29.87,WSW,248,0.0,0.0,61,0.00,,,0.00,WUHU216HW,2013-08-30 08:02:00,
2013-08-30 04:03:00,70.7,66.6,29.73,NW,315,0.0,0.0,87,0.00,,,0.00,WUHU216HW,2013-08-30 08:03:00,
2013-08-30 04:04:00,83.1,68.2,29.87,WSW,248,0.0,0.0,61,0.00,,,0.00,WUHU216HW,2013-08-30 08:04:00,
2013-08-30 04:05:00,82.9,68.0,29.87,WSW,248,0.0,0.0,61,0.00,,,0.00,WUHU216HW,2013-08-30 08:05:00,
2013-08-30 04:06:00,82.9,68.0,29.86,WSW,248,0.0,0.0,61,0.00,,,0.00,WUHU216HW,2013-08-30 08:06:00,
2013-08-30 04:07:00,82.9,68.0,29.87,WSW,248,0.0,0.0,61,0.00,,,0.00,WUHU216HW,2013-08-30 08:07:00,
2013-08-30 04:08:00,70.7,66.6,29.73,NW,315,0.0,0.0,87,0.00,,,0.00,WUHU216HW,2013-08-30 08:08:00,
2013-08-30 04:09:00,82.9,68.0,29.86,WSW,248,0.0,0.0,61,0.00,,,0.00,WUHU216HW,2013-08-30 08:09:00,
2013-08-30 04:10:00,82.9,68.0,29.86,WSW,248,0.0,0.0,62,0.00,,,0.00,WUHU216HW,2013-08-30 08:10:00,
2013-08-30 04:11:00,82.7,68.3,29.87,WSW,248,0.0,0.0,62,0.00,,,0.00,WUHU216HW,2013-08-30 08:11:00,
2013-08-30 04:12:00,82.7,68.3,29.87,WSW,248,0.0,0.0,62,0.00,,,0.00,WUHU216HW,2013-08-30 08:12:00,
2013-08-30 04:13:00,70.5,66.4,29.74,NW,315,0.0,0.0,88,0.00,,,0.00,WUHU216HW,2013-08-30 08:13:00,
2013-08-30 04:15:00,82.5,68.1,29.86,WSW,248,0.0,0.0,62,0.00,,,0.00,WUHU216HW,2013-08-30 08:15:00,
2013-08-30 04:16:00,82.5,68.1,29.87,WSW,248,0.0,0.0,62,0.00,,,0.00,WUHU216HW,2013-08-30 08:16:00,
2013-08-30 04:17:00,82.5,68.1,29.87,WSW,248,0.0,0.0,62,0.00,,,0.00,WUHU216HW,2013-08-30 08:17:00,
2013-08-30 04:18:00,70.3,66.5,29.73,NW,315,0.0,0.0,88,0.00,,,0.00,WUHU216HW,2013-08-30 08:18:00,
2013-08-30 04:19:00,82.4,68.0,29.87,WSW,248,0.0,0.0,62,0.00,,,0.00,WUHU216HW,2013-08-30 08:19:00,
2013-08-30 04:20:00,82.2,67.8,29.87,WSW,248,0.0,0.0,62,0.00,,,0.00,WUHU216HW,2013-08-30 08:20:00,
2013-08-30 04:21:00,82.2,67.8,29.87,WSW,248,0.0,0.0,62,0.00,,,0.00,WUHU216HW,2013-08-30 08:21:00,
2013-08-30 04:23:00,70.1,66.4,29.73,NW,315,0.0,0.0,88,0.00,,,0.00,WUHU216HW,2013-08-30 08:23:00,
2013-08-30 04:24:00,82.2,67.8,29.87,WSW,248,0.0,0.0,62,0.00,,,0.00,WUHU216HW,2013-08-30 08:24:00,
2013-08-30 04:25:00,82.2,67.8,29.87,WSW,248,0.0,0.0,62,0.00,,,0.00,WUHU216HW,2013-08-30 08:25:00,
2013-08-30 04:27:00,82.0,68.1,29.87,WSW,248,0.0,0.0,63,0.00,,,0.00,WUHU216HW,2013-08-30 08:27:00,
2013-08-30 04:28:00,70.1,66.4,29.73,NW,315,0.0,0.0,88,0.00,,,0.00,WUHU216HW,2013-08-30 08:28:00,
2013-08-30 04:30:00,82.0,68.1,29.87,WSW,248,0.0,0.0,63,0.00,,,0.00,WUHU216HW,2013-08-30 08:30:00,
2013-08-30 04:32:00,82.0,68.1,29.87,WSW,248,0.0,0.0,63,0.00,,,0.00,WUHU216HW,2013-08-30 08:32:00,
2013-08-30 04:33:00,69.9,66.2,29.73,NW,315,0.0,0.0,88,0.00,,,0.00,WUHU216HW,2013-08-30 08:33:00,
2013-08-30 04:34:00,82.0,68.1,29.88,WSW,248,0.0,0.0,63,0.00,,,0.00,WUHU216HW,2013-08-30 08:34:00,
2013-08-30 04:35:00,81.8,67.9,29.87,WSW,248,0.0,0.0,63,0.00,,,0.00,WUHU216HW,2013-08-30 08:35:00,
2013-08-30 04:36:00,81.8,67.9,29.87,WSW,248,0.0,0.0,63,0.00,,,0.00,WUHU216HW,2013-08-30 08:36:00,
2013-08-30 04:37:00,81.6,68.2,29.88,WSW,248,0.0,0.0,64,0.00,,,0.00,WUHU216HW,2013-08-30 08:37:00,
2013-08-30 04:38:00,69.8,66.0,29.73,NW,315,0.0,0.0,88,0.00,,,0.00,WUHU216HW,2013-08-30 08:38:00,
2013-08-30 04:39:00,81.6,68.2,29.88,WSW,248,0.0,0.0,64,0.00,,,0.00,WUHU216HW,2013-08-30 08:39:00,
2013-08-30 04:40:00,81.6,68.2,29.88,WSW,248,0.0,0.0,64,0.00,,,0.00,WUHU216HW,2013-08-30 08:40:00,
2013-08-30 04:41:00,81.6,68.2,29.88,WSW,248,0.0,0.0,64,0.00,,,0.00,WUHU216HW,2013-08-30 08:41:00,
2013-08-30 04:42:00,81.6,68.2,29.88,WSW,248,0.0,0.0,64,0.00,,,0.00,WUHU216HW,2013-08-30 08:42:00,
2013-08-30 04:43:00,69.6,65.8,29.73,NW,315,0.0,0.0,88,0.00,,,0.00,WUHU216HW,2013-08-30 08:43:00,
2013-08-30 04:44:00,81.5,68.0,29.88,WSW,248,0.0,0.0,64,0.00,,,0.00,WUHU216HW,2013-08-30 08:44:00,
2013-08-30 04:45:00,81.5,68.0,29.88,WSW,248,0.0,0.0,64,0.00,,,0.00,WUHU216HW,2013-08-30 08:45:00,
2013-08-30 04:46:00,81.5,68.0,29.88,WSW,248,0.0,0.0,64,0.00,,,0.00,WUHU216HW,2013-08-30 08:46:00,
2013-08-30 04:47:00,81.5,68.0,29.88,WSW,248,0.0,0.0,64,0.00,,,0.00,WUHU216HW,2013-08-30 08:47:00,
2013-08-30 04:48:00,69.6,65.8,29.73,NW,315,0.0,0.0,88,0.00,,,0.00,WUHU216HW,2013-08-30 08:48:00,
2013-08-30 04:49:00,81.3,68.3,29.88,WSW,248,0.0,0.0,65,0.00,,,0.00,WUHU216HW,2013-08-30 08:49:00,
2013-08-30 04:50:00,81.3,68.3,29.88,WSW,248,0.0,0.0,65,0.00,,,0.00,WUHU216HW,2013-08-30 08:50:00,
2013-08-30 04:51:00,81.3,68.3,29.88,WSW,248,0.0,0.0,65,0.00,,,0.00,WUHU216HW,2013-08-30 08:51:00,
2013-08-30 04:52:00,81.3,68.3,29.88,WSW,248,0.0,0.0,65,0.00,,,0.00,WUHU216HW,2013-08-30 08:52:00,
2013-08-30 04:53:00,69.4,65.7,29.74,NW,315,0.0,0.0,88,0.00,,,0.00,WUHU216HW,2013-08-30 08:53:00,
2013-08-30 04:54:00,81.1,68.6,29.88,WSW,248,0.0,0.0,66,0.00,,,0.00,WUHU216HW,2013-08-30 08:54:00,
2013-08-30 04:55:00,81.1,68.6,29.88,WSW,248,0.0,0.0,66,0.00,,,0.00,WUHU216HW,2013-08-30 08:55:00,
2013-08-30 04:56:00,81.1,68.6,29.88,WSW,248,0.0,0.0,66,0.00,,,0.00,WUHU216HW,2013-08-30 08:56:00,
2013-08-30 04:57:00,81.1,68.6,29.88,WSW,248,0.0,0.0,66,0.00,,,0.00,WUHU216HW,2013-08-30 08:57:00,
2013-08-30 04:58:00,69.4,65.7,29.74,NW,315,0.0,0.0,88,0.00,,,0.00,WUHU216HW,2013-08-30 08:58:00,
2013-08-30 04:59:00,80.9,68.5,29.89,WSW,248,0.0,0.0,66,0.00,,,0.00,WUHU216HW,2013-08-30 08:59:00,
2013-08-30 05:00:00,80.9,68.5,29.89,WSW,248,0.0,0.0,66,0.00,,,0.00,WUHU216HW,2013-08-30 09:00:00,
2013-08-30 05:01:00,80.7,68.3,29.89,WSW,248,0.0,0.0,66,0.00,,,0.00,WUHU216HW,2013-08-30 09:01:00,
2013-08-30 05:02:00,80.7,68.3,29.89,WSW,248,0.0,0.0,66,0.00,,,0.00,WUHU216HW,2013-08-30 09:02:00,
2013-08-30 05:03:00,69.4,65.7,29.73,NW,315,0.0,0.0,88,0.00,,,0.00,WUHU216HW,2013-08-30 09:03:00,
2013-08-30 05:04:00,80.7,68.3,29.89,WSW,248,0.0,0.0,66,0.00,,,0.00,WUHU216HW,2013-08-30 09:04:00,
2013-08-30 05:05:00,80.7,68.3,29.89,WSW,248,0.0,0.0,67,0.00,,,0.00,WUHU216HW,2013-08-30 09:05:00,
2013-08-30 05:06:00,80.7,68.3,29.89,WSW,248,0.0,0.0,67,0.00,,,0.00,WUHU216HW,2013-08-30 09:06:00,
2013-08-30 05:07:00,80.6,68.6,29.89,WSW,248,0.0,0.0,67,0.00,,,0.00,WUHU216HW,2013-08-30 09:07:00,
2013-08-30 05:08:00,69.4,65.7,29.73,NW,315,0.0,0.0,88,0.00,,,0.00,WUHU216HW,2013-08-30 09:08:00,
2013-08-30 05:09:00,80.6,68.6,29.89,WSW,248,0.0,0.0,67,0.00,,,0.00,WUHU216HW,2013-08-30 09:09:00,
2013-08-30 05:11:00,80.4,68.4,29.90,WSW,248,0.0,0.0,67,0.00,,,0.00,WUHU216HW,2013-08-30 09:11:00,
2013-08-30 05:12:00,80.4,68.4,29.89,WSW,248,0.0,0.0,67,0.00,,,0.00,WUHU216HW,2013-08-30 09:12:00,
2013-08-30 05:13:00,69.0,65.3,29.73,NW,315,0.0,0.0,88,0.00,,,0.00,WUHU216HW,2013-08-30 09:13:00,
2013-08-30 05:14:00,80.2,68.2,29.89,WSW,248,0.0,0.0,67,0.00,,,0.00,WUHU216HW,2013-08-30 09:14:00,
2013-08-30 05:15:00,80.2,68.2,29.89,WSW,248,0.0,0.0,67,0.00,,,0.00,WUHU216HW,2013-08-30 09:15:00,
2013-08-30 05:16:00,80.2,68.2,29.89,WSW,248,0.0,0.0,67,0.00,,,0.00,WUHU216HW,2013-08-30 09:16:00,
2013-08-30 05:17:00,80.2,68.2,29.89,WSW,248,0.0,0.0,67,0.00,,,0.00,WUHU216HW,2013-08-30 09:17:00,
2013-08-30 05:18:00,68.9,65.5,29.73,NW,315,0.0,0.0,89,0.00,,,0.00,WUHU216HW,2013-08-30 09:18:00,
2013-08-30 05:19:00,80.2,68.2,29.90,WSW,248,0.0,0.0,67,0.00,,,0.00,WUHU216HW,2013-08-30 09:19:00,
2013-08-30 05:20:00,80.2,68.2,29.90,WSW,248,0.0,0.0,67,0.00,,,0.00,WUHU216HW,2013-08-30 09:20:00,
2013-08-30 05:21:00,80.2,68.2,29.90,WSW,248,0.0,0.0,67,0.00,,,0.00,WUHU216HW,2013-08-30 09:21:00,
2013-08-30 05:22:00,80.2,68.2,29.90,WSW,248,0.0,0.0,67,0.00,,,0.00,WUHU216HW,2013-08-30 09:22:00,
2013-08-30 05:23:00,68.7,65.3,29.74,NW,315,0.0,0.0,89,0.00,,,0.00,WUHU216HW,2013-08-30 09:23:00,
2013-08-30 05:24:00,80.2,68.2,29.90,WSW,248,0.0,0.0,67,0.00,,,0.00,WUHU216HW,2013-08-30 09:24:00,
2013-08-30 05:25:00,80.0,68.5,29.90,WSW,248,0.0,0.0,68,0.00,,,0.00,WUHU216HW,2013-08-30 09:25:00,
2013-08-30 05:26:00,80.0,68.5,29.90,WSW,248,0.0,0.0,68,0.00,,,0.00,WUHU216HW,2013-08-30 09:26:00,
2013-08-30 05:27:00,79.8,68.3,29.90,WSW,248,0.0,0.0,68,0.00,,,0.00,WUHU216HW,2013-08-30 09:27:00,
2013-08-30 05:28:00,68.7,65.3,29.74,NW,315,0.0,0.0,89,0.00,,,0.00,WUHU216HW,2013-08-30 09:28:00,
2013-08-30 05:29:00,79.8,68.3,29.90,WSW,248,0.0,0.0,68,0.00,,,0.00,WUHU216HW,2013-08-30 09:29:00,
2013-08-30 05:30:00,79.8,68.3,29.90,WSW,248,0.0,0.0,68,0.00,,,0.00,WUHU216HW,2013-08-30 09:30:00,
2013-08-30 05:31:00,79.8,68.3,29.90,WSW,248,0.0,0.0,68,0.00,,,0.00,WUHU216HW,2013-08-30 09:31:00,
2013-08-30 05:32:00,79.8,68.3,29.90,WSW,248,0.0,0.0,68,0.00,,,0.00,WUHU216HW,2013-08-30 09:32:00,
2013-08-30 05:33:00,79.7,68.2,29.90,WSW,248,0.0,0.0,68,0.00,,,0.00,WUHU216HW,2013-08-30 09:33:00,
2013-08-30 05:34:00,79.7,68.2,29.90,WSW,248,0.0,0.0,68,0.00,,,0.00,WUHU216HW,2013-08-30 09:34:00,
2013-08-30 05:35:00,79.7,68.2,29.90,WSW,248,0.0,0.0,69,0.00,,,0.00,WUHU216HW,2013-08-30 09:35:00,
2013-08-30 05:36:00,79.7,68.2,29.90,WSW,248,0.0,0.0,69,0.00,,,0.00,WUHU216HW,2013-08-30 09:36:00,
2013-08-30 05:37:00,79.7,68.2,29.90,WSW,248,0.0,0.0,69,0.00,,,0.00,WUHU216HW,2013-08-30 09:37:00,
2013-08-30 05:38:00,79.7,68.2,29.90,WSW,248,0.0,0.0,69,0.00,,,0.00,WUHU216HW,2013-08-30 09:38:00,
2013-08-30 05:39:00,79.7,68.2,29.90,WSW,248,0.0,0.0,69,0.00,,,0.00,WUHU216HW,2013-08-30 09:39:00,
2013-08-30 05:40:00,79.5,68.4,29.90,WSW,248,0.0,0.0,69,0.00,,,0.00,WUHU216HW,2013-08-30 09:40:00,
2013-08-30 05:45:00,68.5,65.1,29.74,NW,315,0.0,0.0,89,0.00,,,0.00,WUHU216HW,2013-08-30 09:45:00,
2013-08-30 05:48:00,79.3,68.2,29.90,WSW,248,0.0,0.0,69,0.00,,,0.00,WUHU216HW,2013-08-30 09:48:00,
2013-08-30 05:49:00,79.3,68.2,29.90,WSW,248,0.0,0.0,69,0.00,,,0.00,WUHU216HW,2013-08-30 09:49:00,
2013-08-30 05:50:00,68.3,64.9,29.74,NW,315,0.0,0.0,89,0.00,,,0.00,WUHU216HW,2013-08-30 09:50:00,
2013-08-30 05:51:00,79.3,68.2,29.90,WSW,248,0.0,0.0,69,0.00,,,0.00,WUHU216HW,2013-08-30 09:51:00,
2013-08-30 05:55:00,79.3,68.2,29.90,WSW,248,0.0,0.0,69,0.00,,,0.00,WUHU216HW,2013-08-30 09:55:00,
2013-08-30 05:56:00,68.1,64.7,29.74,NW,315,0.0,0.0,89,0.00,,,0.00,WUHU216HW,2013-08-30 09:56:00,
2013-08-30 05:59:00,79.3,68.2,29.91,WSW,248,0.0,0.0,70,0.00,,,0.00,WUHU216HW,2013-08-30 09:59:00,
2013-08-30 06:00:00,79.3,68.2,29.91,WSW,248,0.0,0.0,70,0.00,,,0.00,WUHU216HW,2013-08-30 10:00:00,
2013-08-30 06:01:00,68.1,64.7,29.74,NW,315,0.0,0.0,89,0.00,,,0.00,WUHU216HW,2013-08-30 10:01:00,
2013-08-30 06:02:00,79.3,68.2,29.91,WSW,248,0.0,0.0,70,0.00,,,0.00,WUHU216HW,2013-08-30 10:02:00,
2013-08-30 06:03:00,79.3,68.2,29.91,WSW,248,0.0,0.0,70,0.00,,,0.00,WUHU216HW,2013-08-30 10:03:00,
2013-08-30 06:04:00,79.1,68.5,29.91,WSW,248,0.0,0.0,70,0.00,,,0.00,WUHU216HW,2013-08-30 10:04:00,
2013-08-30 06:05:00,79.1,68.5,29.91,WSW,248,0.0,0.0,70,0.00,,,0.00,WUHU216HW,2013-08-30 10:05:00,
2013-08-30 06:06:00,68.1,64.7,29.74,NW,315,0.0,0.0,89,0.00,,,0.00,WUHU216HW,2013-08-30 10:06:00,
2013-08-30 06:07:00,79.1,68.5,29.92,WSW,248,0.0,0.0,70,0.00,,,0.00,WUHU216HW,2013-08-30 10:07:00,
2013-08-30 06:09:00,78.9,68.3,29.92,WSW,248,0.0,0.0,70,0.00,,,0.00,WUHU216HW,2013-08-30 10:09:00,
2013-08-30 06:11:00,68.0,64.2,29.75,NW,315,0.0,0.0,88,0.00,,,0.00,WUHU216HW,2013-08-30 10:11:00,
2013-08-30 06:16:00,67.8,64.1,29.75,NW,315,0.0,0.0,89,0.00,,,0.00,WUHU216HW,2013-08-30 10:16:00,
2013-08-30 06:22:00,67.8,64.1,29.75,NW,315,0.0,0.0,89,0.00,,,0.00,WUHU216HW,2013-08-30 10:22:00,
2013-08-30 06:27:00,67.6,64.2,29.76,NW,315,0.0,0.0,89,0.00,,,0.00,WUHU216HW,2013-08-30 10:27:00,
2013-08-30 06:29:00,78.4,68.2,29.92,WSW,248,0.0,0.0,72,0.00,,,0.00,WUHU216HW,2013-08-30 10:29:00,
2013-08-30 06:30:00,78.4,68.2,29.92,WSW,248,0.0,0.0,72,0.00,,,0.00,WUHU216HW,2013-08-30 10:30:00,
2013-08-30 06:31:00,78.4,68.2,29.92,WSW,248,0.0,0.0,72,0.00,,,0.00,WUHU216HW,2013-08-30 10:31:00,
2013-08-30 06:32:00,67.6,64.2,29.76,NW,315,0.0,0.0,89,0.00,,,0.00,WUHU216HW,2013-08-30 10:32:00,
2013-08-30 06:33:00,78.2,68.4,29.92,WSW,248,0.0,0.0,72,0.00,,,0.00,WUHU216HW,2013-08-30 10:33:00,
2013-08-30 06:34:00,78.2,68.4,29.92,WSW,248,0.0,0.0,72,0.00,,,0.00,WUHU216HW,2013-08-30 10:34:00,
2013-08-30 06:35:00,78.2,68.4,29.92,WSW,248,0.0,0.0,72,0.00,,,0.00,WUHU216HW,2013-08-30 10:35:00,
2013-08-30 06:37:00,67.4,64.0,29.75,NW,315,0.0,0.0,89,0.00,,,0.00,WUHU216HW,2013-08-30 10:37:00,
2013-08-30 06:39:00,78.2,68.4,29.92,WSW,248,0.0,0.0,72,0.00,,,0.00,WUHU216HW,2013-08-30 10:39:00,
2013-08-30 06:40:00,78.0,68.3,29.92,WSW,248,0.0,0.0,72,0.00,,,0.00,WUHU216HW,2013-08-30 10:40:00,
2013-08-30 06:41:00,78.0,68.3,29.92,WSW,248,0.0,0.0,72,0.00,,,0.00,WUHU216HW,2013-08-30 10:41:00,
2013-08-30 06:42:00,67.2,63.8,29.76,NW,315,0.0,0.0,89,0.00,,,0.00,WUHU216HW,2013-08-30 10:42:00,
2013-08-30 06:43:00,78.0,68.3,29.92,WSW,248,0.0,0.0,72,0.00,,,0.00,WUHU216HW,2013-08-30 10:43:00,
2013-08-30 06:44:00,78.0,68.3,29.92,WSW,248,0.0,0.0,72,0.00,,,0.00,WUHU216HW,2013-08-30 10:44:00,
2013-08-30 06:45:00,78.0,68.3,29.92,WSW,248,0.0,0.0,72,0.00,,,0.00,WUHU216HW,2013-08-30 10:45:00,
2013-08-30 06:48:00,67.2,63.8,29.76,NW,315,0.0,0.0,89,0.00,,,0.00,WUHU216HW,2013-08-30 10:48:00,
2013-08-30 06:49:00,78.0,68.3,29.92,WSW,248,0.0,0.0,72,0.00,,,0.00,WUHU216HW,2013-08-30 10:49:00,
2013-08-30 06:50:00,78.0,68.3,29.92,WSW,248,0.0,0.0,72,0.00,,,0.00,WUHU216HW,2013-08-30 10:50:00,
2013-08-30 06:51:00,78.0,68.3,29.92,WSW,248,0.0,0.0,72,0.00,,,0.00,WUHU216HW,2013-08-30 10:51:00,
2013-08-30 06:53:00,67.1,63.7,29.76,NW,315,0.0,0.0,89,0.00,,,0.00,WUHU216HW,2013-08-30 10:53:00,
2013-08-30 06:56:00,78.0,68.3,29.92,South,180,0.0,0.0,72,0.00,,,0.00,WUHU216HW,2013-08-30 10:56:00,
2013-08-30 06:58:00,67.2,63.8,29.76,NW,315,0.0,0.0,89,0.00,,,0.00,WUHU216HW,2013-08-30 10:58:00,
2013-08-30 06:59:00,78.0,68.3,29.92,SSW,203,0.0,0.0,72,0.00,,,0.00,WUHU216HW,2013-08-30 10:59:00,
2013-08-30 07:00:00,78.0,68.3,29.92,SSW,203,0.0,0.0,72,0.00,,,0.00,WUHU216HW,2013-08-30 11:00:00,
2013-08-30 07:01:00,78.0,68.3,29.92,South,180,0.0,0.0,72,0.00,,,0.00,WUHU216HW,2013-08-30 11:01:00,
2013-08-30 07:02:00,78.0,68.3,29.92,South,180,0.0,0.0,72,0.00,,,0.00,WUHU216HW,2013-08-30 11:02:00,
2013-08-30 07:03:00,78.0,68.3,29.92,South,180,0.0,0.0,72,0.00,,,0.00,WUHU216HW,2013-08-30 11:03:00,
2013-08-30 07:04:00,67.2,63.8,29.76,NW,315,0.0,0.0,89,0.00,,,0.00,WUHU216HW,2013-08-30 11:04:00,
2013-08-30 07:05:00,78.0,68.3,29.92,South,180,0.0,0.0,72,0.00,,,0.00,WUHU216HW,2013-08-30 11:05:00,
2013-08-30 07:06:00,78.0,68.3,29.92,South,180,0.0,0.0,72,0.00,,,0.00,WUHU216HW,2013-08-30 11:06:00,
2013-08-30 07:07:00,78.0,68.3,29.92,South,180,0.0,0.0,72,0.00,,,0.00,WUHU216HW,2013-08-30 11:07:00,
2013-08-30 07:08:00,78.0,68.3,29.92,South,180,0.0,0.0,73,0.00,,,0.00,WUHU216HW,2013-08-30 11:08:00,
2013-08-30 07:09:00,67.2,63.8,29.76,NW,315,0.0,0.0,89,0.00,,,0.00,WUHU216HW,2013-08-30 11:09:00,
2013-08-30 07:10:00,78.0,68.3,29.92,SSE,158,0.0,0.0,73,0.00,,,0.00,WUHU216HW,2013-08-30 11:10:00,
2013-08-30 07:11:00,78.0,68.3,29.92,SSE,158,0.0,0.0,73,0.00,,,0.00,WUHU216HW,2013-08-30 11:11:00,
2013-08-30 07:12:00,78.0,68.3,29.92,SSE,158,0.0,0.0,73,0.00,,,0.00,WUHU216HW,2013-08-30 11:12:00,
2013-08-30 07:13:00,78.0,68.3,29.92,South,180,0.0,0.0,73,0.00,,,0.00,WUHU216HW,2013-08-30 11:13:00,
2013-08-30 07:14:00,67.1,63.7,29.77,NW,315,0.0,0.0,89,0.00,,,0.00,WUHU216HW,2013-08-30 11:14:00,
2013-08-30 07:15:00,78.2,68.8,29.92,SSE,158,0.0,0.0,73,0.00,,,0.00,WUHU216HW,2013-08-30 11:15:00,
2013-08-30 07:16:00,78.2,68.8,29.92,SSE,158,0.0,0.0,73,0.00,,,0.00,WUHU216HW,2013-08-30 11:16:00,
2013-08-30 07:17:00,78.0,69.0,29.92,SE,135,0.0,0.0,74,0.00,,,0.00,WUHU216HW,2013-08-30 11:17:00,
2013-08-30 07:18:00,78.0,69.0,29.92,SE,135,0.0,0.0,74,0.00,,,0.00,WUHU216HW,2013-08-30 11:18:00,
2013-08-30 07:19:00,78.2,68.8,29.92,SE,135,0.0,0.0,73,0.00,,,0.00,WUHU216HW,2013-08-30 11:19:00,
2013-08-30 07:20:00,67.1,63.7,29.77,NW,315,0.0,0.0,90,0.00,,,0.00,WUHU216HW,2013-08-30 11:20:00,
2013-08-30 07:21:00,78.0,68.7,29.92,SSE,158,0.0,0.0,73,0.00,,,0.00,WUHU216HW,2013-08-30 11:21:00,
2013-08-30 07:22:00,78.0,68.7,29.92,SSE,158,0.0,0.0,73,0.00,,,0.00,WUHU216HW,2013-08-30 11:22:00,
2013-08-30 07:23:00,78.0,68.7,29.92,SSE,158,0.0,0.0,73,0.00,,,0.00,WUHU216HW,2013-08-30 11:23:00,
2013-08-30 07:24:00,78.0,68.7,29.92,SSE,158,0.0,0.0,73,0.00,,,0.00,WUHU216HW,2013-08-30 11:24:00,
2013-08-30 07:25:00,67.1,63.7,29.77,NW,315,0.0,0.0,90,0.00,,,0.00,WUHU216HW,2013-08-30 11:25:00,
2013-08-30 07:26:00,78.0,68.7,29.92,SSE,158,0.0,0.0,73,0.00,,,0.00,WUHU216HW,2013-08-30 11:26:00,
2013-08-30 07:27:00,78.0,68.7,29.92,SSE,158,0.0,0.0,73,0.00,,,0.00,WUHU216HW,2013-08-30 11:27:00,
2013-08-30 07:28:00,78.0,68.7,29.92,SSE,158,0.0,0.0,73,0.00,,,0.00,WUHU216HW,2013-08-30 11:28:00,
2013-08-30 07:29:00,78.0,68.7,29.92,SSE,158,0.0,0.0,73,0.00,,,0.00,WUHU216HW,2013-08-30 11:29:00,
2013-08-30 07:30:00,67.1,63.7,29.77,NW,315,0.0,0.0,90,0.00,,,0.00,WUHU216HW,2013-08-30 11:30:00,
2013-08-30 07:31:00,78.0,68.7,29.92,SSE,158,0.0,0.0,73,0.00,,,0.00,WUHU216HW,2013-08-30 11:31:00,
2013-08-30 07:32:00,78.0,68.7,29.92,SSE,158,0.0,0.0,73,0.00,,,0.00,WUHU216HW,2013-08-30 11:32:00,
2013-08-30 07:33:00,78.0,68.7,29.92,SSE,158,0.0,0.0,73,0.00,,,0.00,WUHU216HW,2013-08-30 11:33:00,
2013-08-30 07:34:00,78.0,68.7,29.92,SSE,158,0.0,0.0,73,0.00,,,0.00,WUHU216HW,2013-08-30 11:34:00,
2013-08-30 07:35:00,67.2,64.2,29.77,NW,315,0.0,0.0,90,0.00,,,0.00,WUHU216HW,2013-08-30 11:35:00,
2013-08-30 07:36:00,78.0,68.7,29.92,SSE,158,0.0,0.0,73,0.00,,,0.00,WUHU216HW,2013-08-30 11:36:00,
2013-08-30 07:37:00,78.0,68.7,29.92,SSE,158,0.0,0.0,73,0.00,,,0.00,WUHU216HW,2013-08-30 11:37:00,
2013-08-30 07:39:00,77.9,68.9,29.92,SSE,158,0.0,0.0,74,0.00,,,0.00,WUHU216HW,2013-08-30 11:39:00,
2013-08-30 07:40:00,67.2,64.2,29.77,NW,315,0.0,0.0,90,0.00,,,0.00,WUHU216HW,2013-08-30 11:40:00,
2013-08-30 07:41:00,77.9,68.9,29.92,SSE,158,0.0,0.0,74,0.00,,,0.00,WUHU216HW,2013-08-30 11:41:00,
2013-08-30 07:42:00,77.9,68.9,29.92,SSE,158,0.0,0.0,74,0.00,,,0.00,WUHU216HW,2013-08-30 11:42:00,
2013-08-30 07:43:00,77.9,68.9,29.92,SSE,158,0.0,0.0,74,0.00,,,0.00,WUHU216HW,2013-08-30 11:43:00,
2013-08-30 07:44:00,77.9,68.9,29.92,SSE,158,0.0,0.0,74,0.00,,,0.00,WUHU216HW,2013-08-30 11:44:00,
2013-08-30 07:45:00,67.2,64.2,29.77,NW,315,0.0,0.0,90,0.00,,,0.00,WUHU216HW,2013-08-30 11:45:00,
2013-08-30 07:46:00,77.7,68.7,29.92,SSE,158,0.0,0.0,74,0.00,,,0.00,WUHU216HW,2013-08-30 11:46:00,
2013-08-30 07:47:00,77.7,68.7,29.92,SSE,158,0.0,0.0,74,0.00,,,0.00,WUHU216HW,2013-08-30 11:47:00,
2013-08-30 07:48:00,77.7,68.7,29.92,SSE,158,0.0,0.0,74,0.00,,,0.00,WUHU216HW,2013-08-30 11:48:00,
2013-08-30 07:49:00,77.7,68.7,29.92,SSE,158,0.0,0.0,74,0.00,,,0.00,WUHU216HW,2013-08-30 11:49:00,
2013-08-30 07:50:00,77.7,68.7,29.92,SSE,158,0.0,0.0,74,0.00,,,0.00,WUHU216HW,2013-08-30 11:50:00,
2013-08-30 07:51:00,67.6,64.5,29.77,NW,315,0.0,0.0,90,0.00,,,0.00,WUHU216HW,2013-08-30 11:51:00,
2013-08-30 07:52:00,77.5,68.5,29.92,SSE,158,0.0,0.0,74,0.00,,,0.00,WUHU216HW,2013-08-30 11:52:00,
2013-08-30 07:57:00,67.6,64.5,29.77,NW,315,0.0,0.0,90,0.00,,,0.00,WUHU216HW,2013-08-30 11:57:00,
2013-08-30 08:02:00,67.8,64.7,29.77,NW,315,0.0,0.0,90,0.00,,,0.00,WUHU216HW,2013-08-30 12:02:00,
2013-08-30 08:04:00,77.3,68.7,29.92,SSE,158,0.0,0.0,75,0.00,,,0.00,WUHU216HW,2013-08-30 12:04:00,
2013-08-30 08:05:00,77.3,68.7,29.92,SSE,158,0.0,0.0,75,0.00,,,0.00,WUHU216HW,2013-08-30 12:05:00,
2013-08-30 08:07:00,68.1,65.1,29.77,NW,315,0.0,0.0,90,0.00,,,0.00,WUHU216HW,2013-08-30 12:07:00,
2013-08-30 08:08:00,77.3,68.7,29.92,SSE,158,0.0,0.0,75,0.00,,,0.00,WUHU216HW,2013-08-30 12:08:00,
2013-08-30 08:09:00,77.1,68.6,29.92,SSE,158,0.0,0.0,75,0.00,,,0.00,WUHU216HW,2013-08-30 12:09:00,
2013-08-30 08:10:00,77.1,68.6,29.92,SSE,158,0.0,0.0,75,0.00,,,0.00,WUHU216HW,2013-08-30 12:10:00,
2013-08-30 08:11:00,77.1,68.6,29.92,SSE,158,0.0,0.0,75,0.00,,,0.00,WUHU216HW,2013-08-30 12:11:00,
2013-08-30 08:12:00,68.3,65.3,29.78,NE,45,0.0,0.0,90,0.00,,,0.00,WUHU216HW,2013-08-30 12:12:00,
2013-08-30 08:13:00,77.1,68.6,29.92,SSE,158,0.0,0.0,75,0.00,,,0.00,WUHU216HW,2013-08-30 12:13:00,
2013-08-30 08:14:00,77.1,68.6,29.92,SSE,158,0.0,0.0,75,0.00,,,0.00,WUHU216HW,2013-08-30 12:14:00,
2013-08-30 08:15:00,77.1,68.6,29.92,SSE,158,0.0,0.0,76,0.00,,,0.00,WUHU216HW,2013-08-30 12:15:00,
2013-08-30 08:16:00,77.1,68.6,29.92,SSE,158,0.0,0.0,76,0.00,,,0.00,WUHU216HW,2013-08-30 12:16:00,
2013-08-30 08:17:00,76.8,68.6,29.92,SSE,158,0.0,0.0,76,0.00,,,0.00,WUHU216HW,2013-08-30 12:17:00,
2013-08-30 08:18:00,68.5,65.4,29.78,NE,45,0.0,0.0,90,0.00,,,0.00,WUHU216HW,2013-08-30 12:18:00,
2013-08-30 08:19:00,76.8,68.6,29.92,SSE,158,0.0,0.0,76,0.00,,,0.00,WUHU216HW,2013-08-30 12:19:00,
2013-08-30 08:20:00,76.8,68.6,29.92,SSE,158,0.0,0.0,76,0.00,,,0.00,WUHU216HW,2013-08-30 12:20:00,
2013-08-30 08:21:00,76.8,68.6,29.92,SSE,158,0.0,0.0,76,0.00,,,0.00,WUHU216HW,2013-08-30 12:21:00,
2013-08-30 08:22:00,76.8,68.6,29.92,SSE,158,0.0,0.0,76,0.00,,,0.00,WUHU216HW,2013-08-30 12:22:00,
2013-08-30 08:23:00,68.7,65.6,29.78,NE,45,0.0,0.0,90,0.00,,,0.00,WUHU216HW,2013-08-30 12:23:00,
2013-08-30 08:24:00,76.8,68.6,29.92,SSE,158,0.0,0.0,76,0.00,,,0.00,WUHU216HW,2013-08-30 12:24:00,
2013-08-30 08:25:00,76.8,68.6,29.92,SSE,158,0.0,0.0,76,0.00,,,0.00,WUHU216HW,2013-08-30 12:25:00,
2013-08-30 08:26:00,76.8,68.6,29.92,SSE,158,0.0,0.0,76,0.00,,,0.00,WUHU216HW,2013-08-30 12:26:00,
2013-08-30 08:27:00,68.9,65.8,29.78,NW,315,0.0,1.1,89,0.00,,,0.00,WUHU216HW,2013-08-30 12:27:00,
2013-08-30 08:29:00,76.6,68.4,29.92,SSE,158,0.0,0.0,76,0.00,,,0.00,WUHU216HW,2013-08-30 12:29:00,
2013-08-30 08:30:00,76.6,68.4,29.92,SSE,158,0.0,0.0,76,0.00,,,0.00,WUHU216HW,2013-08-30 12:30:00,
2013-08-30 08:31:00,76.6,68.4,29.92,SSE,158,0.0,0.0,76,0.00,,,0.00,WUHU216HW,2013-08-30 12:31:00,
2013-08-30 08:32:00,76.6,68.4,29.92,SSE,158,0.0,0.0,76,0.00,,,0.00,WUHU216HW,2013-08-30 12:32:00,
2013-08-30 08:33:00,68.9,65.8,29.78,NNE,23,0.0,1.1,89,0.00,,,0.00,WUHU216HW,2013-08-30 12:33:00,
2013-08-30 08:34:00,76.6,68.4,29.92,SSE,158,0.0,0.0,76,0.00,,,0.00,WUHU216HW,2013-08-30 12:34:00,
2013-08-30 08:36:00,76.6,68.4,29.92,SSE,158,0.0,0.0,77,0.00,,,0.00,WUHU216HW,2013-08-30 12:36:00,
2013-08-30 08:37:00,76.6,68.4,29.92,SSE,158,0.0,0.0,77,0.00,,,0.00,WUHU216HW,2013-08-30 12:37:00,
2013-08-30 08:38:00,69.0,65.6,29.78,NNW,338,0.0,0.0,89,0.00,,,0.00,WUHU216HW,2013-08-30 12:38:00,
2013-08-30 08:39:00,76.4,68.7,29.92,SSE,158,0.0,0.0,77,0.00,,,0.00,WUHU216HW,2013-08-30 12:39:00,
2013-08-30 08:40:00,76.4,68.7,29.92,SSE,158,0.0,0.0,77,0.00,,,0.00,WUHU216HW,2013-08-30 12:40:00,
2013-08-30 08:41:00,76.2,68.1,29.92,SSE,158,0.0,0.0,76,0.00,,,0.00,WUHU216HW,2013-08-30 12:41:00,
2013-08-30 08:42:00,76.2,68.1,29.92,SSE,158,0.0,0.0,76,0.00,,,0.00,WUHU216HW,2013-08-30 12:42:00,
2013-08-30 08:43:00,76.2,68.1,29.92,SSE,158,0.0,0.0,76,0.00,,,0.00,WUHU216HW,2013-08-30 12:43:00,
2013-08-30 08:44:00,69.4,66.0,29.78,NNW,338,0.0,0.0,89,0.00,,,0.00,WUHU216HW,2013-08-30 12:44:00,
2013-08-30 08:45:00,76.2,68.1,29.92,SSE,158,0.0,0.0,76,0.00,,,0.00,WUHU216HW,2013-08-30 12:45:00,
2013-08-30 08:46:00,76.2,68.1,29.92,SSE,158,0.0,0.0,76,0.00,,,0.00,WUHU216HW,2013-08-30 12:46:00,
2013-08-30 08:47:00,76.2,68.1,29.92,SSE,158,0.0,0.0,76,0.00,,,0.00,WUHU216HW,2013-08-30 12:47:00,
2013-08-30 08:48:00,76.2,68.1,29.92,SSE,158,0.0,0.0,76,0.00,,,0.00,WUHU216HW,2013-08-30 12:48:00,
2013-08-30 08:49:00,69.4,66.0,29.78,NNW,338,0.0,0.0,88,0.00,,,0.00,WUHU216HW,2013-08-30 12:49:00,
2013-08-30 08:50:00,76.1,68.3,29.92,SSE,158,0.0,0.0,77,0.00,,,0.00,WUHU216HW,2013-08-30 12:50:00,
2013-08-30 08:51:00,76.1,68.3,29.92,SSE,158,0.0,0.0,77,0.00,,,0.00,WUHU216HW,2013-08-30 12:51:00,
2013-08-30 08:52:00,76.1,68.3,29.91,SSE,158,0.0,0.0,77,0.00,,,0.00,WUHU216HW,2013-08-30 12:52:00,
2013-08-30 08:54:00,69.6,65.8,29.78,NNW,338,0.4,0.4,88,0.00,,,0.00,WUHU216HW,2013-08-30 12:54:00,
2013-08-30 08:55:00,76.1,68.3,29.91,SSE,158,0.0,0.0,77,0.00,,,0.00,WUHU216HW,2013-08-30 12:55:00,
2013-08-30 08:56:00,75.9,68.2,29.91,SSE,158,0.0,0.0,77,0.00,,,0.00,WUHU216HW,2013-08-30 12:56:00,
2013-08-30 08:57:00,75.9,68.2,29.91,SSE,158,0.0,0.0,77,0.00,,,0.00,WUHU216HW,2013-08-30 12:57:00,
2013-08-30 08:58:00,75.9,68.2,29.91,SSE,158,0.0,0.0,77,0.00,,,0.00,WUHU216HW,2013-08-30 12:58:00,
2013-08-30 08:59:00,69.8,66.0,29.78,NNW,338,0.0,0.4,88,0.00,,,0.00,WUHU216HW,2013-08-30 12:59:00,
2013-08-30 09:00:00,75.9,68.2,29.91,SSE,158,0.0,0.0,77,0.00,,,0.00,WUHU216HW,2013-08-30 13:00:00,
2013-08-30 09:01:00,75.9,68.2,29.91,SSE,158,0.0,0.0,77,0.00,,,0.00,WUHU216HW,2013-08-30 13:01:00,
2013-08-30 09:02:00,75.9,68.2,29.91,SSE,158,0.0,0.0,77,0.00,,,0.00,WUHU216HW,2013-08-30 13:02:00,
2013-08-30 09:03:00,75.9,68.2,29.91,SSE,158,0.0,0.0,77,0.00,,,0.00,WUHU216HW,2013-08-30 13:03:00,
2013-08-30 09:04:00,70.1,66.4,29.78,NNW,338,0.0,0.4,88,0.00,,,0.00,WUHU216HW,2013-08-30 13:04:00,
2013-08-30 09:05:00,75.9,68.2,29.91,SSE,158,0.0,0.0,77,0.00,,,0.00,WUHU216HW,2013-08-30 13:05:00,
2013-08-30 09:06:00,75.7,68.4,29.91,SSE,158,0.0,0.0,78,0.00,,,0.00,WUHU216HW,2013-08-30 13:06:00,
2013-08-30 09:08:00,75.7,68.4,29.91,SSE,158,0.0,0.0,78,0.00,,,0.00,WUHU216HW,2013-08-30 13:08:00,
2013-08-30 09:09:00,70.5,66.7,29.78,WNW,293,0.0,0.0,88,0.00,,,0.00,WUHU216HW,2013-08-30 13:09:00,
2013-08-30 09:13:00,75.7,68.4,29.91,SSE,158,0.0,0.0,77,0.00,,,0.00,WUHU216HW,2013-08-30 13:13:00,
2013-08-30 09:14:00,70.8,66.7,29.78,NNW,338,0.0,0.0,87,0.00,,,0.00,WUHU216HW,2013-08-30 13:14:00,
2013-08-30 09:16:00,75.7,68.4,29.91,SSE,158,0.0,0.0,77,0.00,,,0.00,WUHU216HW,2013-08-30 13:16:00,
2013-08-30 09:19:00,71.2,67.1,29.78,NNW,338,0.0,0.0,87,0.00,,,0.00,WUHU216HW,2013-08-30 13:19:00,
2013-08-30 09:20:00,75.7,68.4,29.91,SSE,158,0.0,0.0,77,0.00,,,0.00,WUHU216HW,2013-08-30 13:20:00,
2013-08-30 09:21:00,75.7,68.4,29.91,SSE,158,0.0,0.0,77,0.00,,,0.00,WUHU216HW,2013-08-30 13:21:00,
2013-08-30 09:24:00,71.2,67.1,29.77,NW,315,0.0,0.0,87,0.00,,,0.00,WUHU216HW,2013-08-30 13:24:00,
2013-08-30 09:25:00,75.7,68.4,29.91,SSE,158,0.0,0.0,77,0.00,,,0.00,WUHU216HW,2013-08-30 13:25:00,
2013-08-30 09:26:00,75.5,67.8,29.91,SSE,158,0.0,0.0,77,0.00,,,0.00,WUHU216HW,2013-08-30 13:26:00,
2013-08-30 09:27:00,75.5,67.8,29.91,SSE,158,0.0,0.0,77,0.00,,,0.00,WUHU216HW,2013-08-30 13:27:00,
2013-08-30 09:28:00,75.5,67.8,29.91,SSE,158,0.0,0.0,77,0.00,,,0.00,WUHU216HW,2013-08-30 13:28:00,
2013-08-30 09:29:00,71.7,67.3,29.77,NNW,338,0.0,0.0,86,0.00,,,0.00,WUHU216HW,2013-08-30 13:29:00,
2013-08-30 09:30:00,75.3,67.7,29.91,SSE,158,0.0,0.0,77,0.00,,,0.00,WUHU216HW,2013-08-30 13:30:00,
2013-08-30 09:31:00,75.3,67.7,29.91,SSE,158,0.0,0.0,77,0.00,,,0.00,WUHU216HW,2013-08-30 13:31:00,
2013-08-30 09:32:00,75.3,67.7,29.91,SSE,158,0.0,0.0,77,0.00,,,0.00,WUHU216HW,2013-08-30 13:32:00,
2013-08-30 09:33:00,75.3,67.7,29.91,SSE,158,0.0,0.0,77,0.00,,,0.00,WUHU216HW,2013-08-30 13:33:00,
2013-08-30 09:34:00,71.9,67.5,29.77,NE,45,0.0,0.0,86,0.00,,,0.00,WUHU216HW,2013-08-30 13:34:00,
2013-08-30 09:35:00,75.3,67.7,29.91,SSE,158,0.0,0.0,78,0.00,,,0.00,WUHU216HW,2013-08-30 13:35:00,
2013-08-30 09:36:00,75.3,67.7,29.91,SSE,158,0.0,0.0,78,0.00,,,0.00,WUHU216HW,2013-08-30 13:36:00,
2013-08-30 09:37:00,75.2,67.9,29.91,SSE,158,0.0,0.0,78,0.00,,,0.00,WUHU216HW,2013-08-30 13:37:00,
2013-08-30 09:38:00,75.2,67.9,29.91,SSE,158,0.0,0.0,78,0.00,,,0.00,WUHU216HW,2013-08-30 13:38:00,
2013-08-30 09:39:00,72.1,67.3,29.77,NE,45,0.0,0.0,85,0.00,,,0.00,WUHU216HW,2013-08-30 13:39:00,
2013-08-30 09:40:00,75.2,67.9,29.91,SSE,158,0.0,0.0,78,0.00,,,0.00,WUHU216HW,2013-08-30 13:40:00,
2013-08-30 09:41:00,75.0,67.7,29.91,SSE,158,0.0,0.0,78,0.00,,,0.00,WUHU216HW,2013-08-30 13:41:00,
2013-08-30 09:42:00,75.0,67.7,29.91,SSE,158,0.0,0.0,78,0.00,,,0.00,WUHU216HW,2013-08-30 13:42:00,
2013-08-30 09:43:00,75.0,67.7,29.91,SSE,158,0.0,0.0,78,0.00,,,0.00,WUHU216HW,2013-08-30 13:43:00,
2013-08-30 09:44:00,72.6,67.9,29.77,NNW,338,0.0,0.0,85,0.00,,,0.00,WUHU216HW,2013-08-30 13:44:00,
2013-08-30 09:46:00,75.0,67.7,29.91,SSE,158,0.0,0.0,78,0.00,,,0.00,WUHU216HW,2013-08-30 13:46:00,
2013-08-30 09:47:00,75.0,67.7,29.91,SSE,158,0.0,0.0,78,0.00,,,0.00,WUHU216HW,2013-08-30 13:47:00,
2013-08-30 09:48:00,75.0,67.7,29.91,SSE,158,0.0,0.0,78,0.00,,,0.00,WUHU216HW,2013-08-30 13:48:00,
2013-08-30 09:49:00,73.0,67.9,29.77,NNW,338,0.0,0.0,84,0.00,,,0.00,WUHU216HW,2013-08-30 13:49:00,
2013-08-30 09:50:00,75.0,67.7,29.91,SSE,158,0.0,0.0,78,0.00,,,0.00,WUHU216HW,2013-08-30 13:50:00,
2013-08-30 09:51:00,75.0,67.7,29.91,SSE,158,0.0,0.0,78,0.00,,,0.00,WUHU216HW,2013-08-30 13:51:00,
2013-08-30 09:52:00,74.8,67.5,29.91,SSE,158,0.0,0.0,78,0.00,,,0.00,WUHU216HW,2013-08-30 13:52:00,
2013-08-30 09:53:00,74.8,67.5,29.91,SSE,158,0.0,0.0,78,0.00,,,0.00,WUHU216HW,2013-08-30 13:53:00,
2013-08-30 09:54:00,73.0,67.9,29.77,North,0,0.0,0.0,84,0.00,,,0.00,WUHU216HW,2013-08-30 13:54:00,
2013-08-30 09:55:00,74.8,67.5,29.91,SSE,158,0.0,0.0,78,0.00,,,0.00,WUHU216HW,2013-08-30 13:55:00,
2013-08-30 09:56:00,74.8,67.5,29.91,SSE,158,0.0,0.0,78,0.00,,,0.00,WUHU216HW,2013-08-30 13:56:00,
2013-08-30 09:58:00,74.8,67.5,29.91,SSE,158,0.0,0.0,78,0.00,,,0.00,WUHU216HW,2013-08-30 13:58:00,
2013-08-30 09:59:00,73.5,68.4,29.77,North,0,0.0,2.2,83,0.00,,,0.00,WUHU216HW,2013-08-30 13:59:00,
2013-08-30 10:00:00,74.8,67.5,29.91,SSE,158,0.0,0.0,78,0.00,,,0.00,WUHU216HW,2013-08-30 14:00:00,
2013-08-30 10:01:00,74.8,67.5,29.91,SSE,158,0.0,0.0,78,0.00,,,0.00,WUHU216HW,2013-08-30 14:01:00,
2013-08-30 10:02:00,74.8,67.5,29.91,SSE,158,0.0,0.0,78,0.00,,,0.00,WUHU216HW,2013-08-30 14:02:00,
2013-08-30 10:03:00,74.8,67.5,29.91,SSE,158,0.0,0.0,78,0.00,,,0.00,WUHU216HW,2013-08-30 14:03:00,
2013-08-30 10:04:00,73.9,68.4,29.77,North,0,0.0,2.2,83,0.00,,,0.00,WUHU216HW,2013-08-30 14:04:00,
2013-08-30 10:05:00,74.6,67.7,29.91,SSE,158,0.0,0.0,79,0.00,,,0.00,WUHU216HW,2013-08-30 14:05:00,
2013-08-30 10:06:00,74.6,67.7,29.91,SSE,158,0.0,0.0,79,0.00,,,0.00,WUHU216HW,2013-08-30 14:06:00,
2013-08-30 10:07:00,74.4,67.6,29.91,SSE,158,0.0,0.0,79,0.00,,,0.00,WUHU216HW,2013-08-30 14:07:00,
2013-08-30 10:08:00,74.4,67.6,29.90,SSE,158,0.0,0.0,79,0.00,,,0.00,WUHU216HW,2013-08-30 14:08:00,
2013-08-30 10:09:00,74.1,68.6,29.78,North,0,0.0,0.0,82,0.00,,,0.00,WUHU216HW,2013-08-30 14:09:00,
2013-08-30 10:10:00,74.4,67.6,29.90,SSE,158,0.0,0.0,79,0.00,,,0.00,WUHU216HW,2013-08-30 14:10:00,
2013-08-30 10:11:00,74.4,67.6,29.90,SSE,158,0.0,0.0,79,0.00,,,0.00,WUHU216HW,2013-08-30 14:11:00,
2013-08-30 10:13:00,74.3,67.4,29.90,SSE,158,0.0,0.0,79,0.00,,,0.00,WUHU216HW,2013-08-30 14:13:00,
2013-08-30 10:14:00,74.6,68.5,29.77,North,0,0.0,0.0,81,0.00,,,0.00,WUHU216HW,2013-08-30 14:14:00,
2013-08-30 10:17:00,74.3,67.4,29.90,SSE,158,0.0,0.0,79,0.00,,,0.00,WUHU216HW,2013-08-30 14:17:00,
2013-08-30 10:18:00,74.3,67.4,29.90,SSE,158,0.0,0.0,79,0.00,,,0.00,WUHU216HW,2013-08-30 14:18:00,
2013-08-30 10:19:00,74.8,68.7,29.77,North,0,0.0,0.0,81,0.00,,,0.00,WUHU216HW,2013-08-30 14:19:00,
2013-08-30 10:21:00,74.3,67.4,29.90,SSE,158,0.0,0.0,79,0.00,,,0.00,WUHU216HW,2013-08-30 14:21:00,
2013-08-30 10:24:00,74.3,67.4,29.90,SSE,158,0.0,0.0,79,0.00,,,0.00,WUHU216HW,2013-08-30 14:24:00,
2013-08-30 10:25:00,75.2,68.7,29.77,North,0,0.0,0.0,80,0.00,,,0.00,WUHU216HW,2013-08-30 14:25:00,
2013-08-30 10:26:00,74.1,67.2,29.91,SSE,158,0.0,0.0,79,0.00,,,0.00,WUHU216HW,2013-08-30 14:26:00,
2013-08-30 10:27:00,74.1,67.2,29.91,SSE,158,0.0,0.0,79,0.00,,,0.00,WUHU216HW,2013-08-30 14:27:00,
2013-08-30 10:28:00,74.1,67.2,29.91,SSE,158,0.0,0.0,80,0.00,,,0.00,WUHU216HW,2013-08-30 14:28:00,
2013-08-30 10:29:00,74.1,67.2,29.91,SSE,158,0.0,0.0,80,0.00,,,0.00,WUHU216HW,2013-08-30 14:29:00,
2013-08-30 10:30:00,75.7,68.8,29.77,North,0,0.0,0.0,79,0.00,,,0.00,WUHU216HW,2013-08-30 14:30:00,
2013-08-30 10:31:00,74.1,67.2,29.91,SSE,158,0.0,0.0,80,0.00,,,0.00,WUHU216HW,2013-08-30 14:31:00,
2013-08-30 10:32:00,74.1,67.2,29.91,SSE,158,0.0,0.0,80,0.00,,,0.00,WUHU216HW,2013-08-30 14:32:00,
2013-08-30 10:33:00,73.9,67.4,29.91,SSE,158,0.0,0.0,80,0.00,,,0.00,WUHU216HW,2013-08-30 14:33:00,
2013-08-30 10:34:00,73.9,67.4,29.90,SSE,158,0.0,0.0,80,0.00,,,0.00,WUHU216HW,2013-08-30 14:34:00,
2013-08-30 10:35:00,75.7,68.8,29.77,North,0,0.0,0.0,79,0.00,,,0.00,WUHU216HW,2013-08-30 14:35:00,
2013-08-30 10:36:00,73.9,67.4,29.90,SSE,158,0.0,0.0,80,0.00,,,0.00,WUHU216HW,2013-08-30 14:36:00,
2013-08-30 10:37:00,73.9,67.4,29.90,SSE,158,0.0,0.0,80,0.00,,,0.00,WUHU216HW,2013-08-30 14:37:00,
2013-08-30 10:38:00,73.9,67.4,29.90,SSE,158,0.0,0.0,80,0.00,,,0.00,WUHU216HW,2013-08-30 14:38:00,
2013-08-30 10:39:00,73.9,67.4,29.90,SSE,158,0.0,0.0,80,0.00,,,0.00,WUHU216HW,2013-08-30 14:39:00,
2013-08-30 10:40:00,75.9,68.5,29.77,North,0,0.0,0.0,78,0.00,,,0.00,WUHU216HW,2013-08-30 14:40:00,
2013-08-30 10:41:00,73.9,67.4,29.90,SSE,158,0.0,0.0,80,0.00,,,0.00,WUHU216HW,2013-08-30 14:41:00,
2013-08-30 10:42:00,73.9,67.4,29.90,SSE,158,0.0,0.0,80,0.00,,,0.00,WUHU216HW,2013-08-30 14:42:00,
2013-08-30 10:43:00,73.9,67.4,29.90,SSE,158,0.0,0.0,80,0.00,,,0.00,WUHU216HW,2013-08-30 14:43:00,
2013-08-30 10:44:00,73.7,67.2,29.90,SSE,158,0.0,0.0,80,0.00,,,0.00,WUHU216HW,2013-08-30 14:44:00,
2013-08-30 10:45:00,76.2,68.5,29.77,North,0,0.0,0.0,77,0.00,,,0.00,WUHU216HW,2013-08-30 14:45:00,
2013-08-30 10:46:00,73.7,67.2,29.90,SSE,158,0.0,0.0,80,0.00,,,0.00,WUHU216HW,2013-08-30 14:46:00,
2013-08-30 10:49:00,73.5,67.1,29.90,SSE,158,0.0,0.0,80,0.00,,,0.00,WUHU216HW,2013-08-30 14:49:00,
2013-08-30 10:50:00,76.6,68.8,29.77,NNW,338,0.0,0.0,77,0.00,,,0.00,WUHU216HW,2013-08-30 14:50:00,
2013-08-30 10:52:00,73.5,67.1,29.90,SSE,158,0.0,0.0,80,0.00,,,0.00,WUHU216HW,2013-08-30 14:52:00,
2013-08-30 10:55:00,76.6,68.8,29.77,NNE,23,0.0,0.0,75,0.00,,,0.00,WUHU216HW,2013-08-30 14:55:00,
2013-08-30 10:56:00,73.5,67.1,29.90,SSE,158,0.0,0.0,80,0.00,,,0.00,WUHU216HW,2013-08-30 14:56:00,
2013-08-30 10:59:00,73.5,67.1,29.90,SSE,158,0.0,0.0,80,0.00,,,0.00,WUHU216HW,2013-08-30 14:59:00,
2013-08-30 11:00:00,76.8,69.0,29.76,NNE,23,0.0,0.0,77,0.00,,,0.00,WUHU216HW,2013-08-30 15:00:00,
2013-08-30 11:01:00,73.5,67.1,29.90,SSE,158,0.0,0.0,80,0.00,,,0.00,WUHU216HW,2013-08-30 15:01:00,
2013-08-30 11:02:00,73.5,67.1,29.90,SSE,158,0.0,0.0,80,0.00,,,0.00,WUHU216HW,2013-08-30 15:02:00,
2013-08-30 11:03:00,73.4,66.9,29.89,SSE,158,0.0,0.0,80,0.00,,,0.00,WUHU216HW,2013-08-30 15:03:00,
2013-08-30 11:04:00,73.4,66.9,29.90,SSE,158,0.0,0.0,80,0.00,,,0.00,WUHU216HW,2013-08-30 15:04:00,
2013-08-30 11:05:00,77.3,68.7,29.77,NNE,23,0.0,0.0,75,0.00,,,0.00,WUHU216HW,2013-08-30 15:05:00,
2013-08-30 11:06:00,73.5,67.1,29.90,SSE,158,0.0,0.0,80,0.00,,,0.00,WUHU216HW,2013-08-30 15:06:00,
2013-08-30 11:07:00,73.5,67.1,29.90,SSE,158,0.0,0.0,81,0.00,,,0.00,WUHU216HW,2013-08-30 15:07:00,
2013-08-30 11:08:00,73.5,67.1,29.90,SSE,158,0.0,0.0,81,0.00,,,0.00,WUHU216HW,2013-08-30 15:08:00,
2013-08-30 11:10:00,77.7,69.1,29.77,North,0,0.0,0.0,73,0.00,,,0.00,WUHU216HW,2013-08-30 15:10:00,
2013-08-30 11:11:00,73.4,67.2,29.90,SSE,158,0.0,0.0,81,0.00,,,0.00,WUHU216HW,2013-08-30 15:11:00,
2013-08-30 11:12:00,73.2,67.0,29.90,SSE,158,0.0,0.0,81,0.00,,,0.00,WUHU216HW,2013-08-30 15:12:00,
2013-08-30 11:14:00,73.2,67.0,29.90,SSE,158,0.0,0.0,81,0.00,,,0.00,WUHU216HW,2013-08-30 15:14:00,
2013-08-30 11:15:00,78.6,68.4,29.77,North,0,0.0,0.0,71,0.00,,,0.00,WUHU216HW,2013-08-30 15:15:00,
2013-08-30 11:16:00,73.2,67.0,29.90,SSE,158,0.0,0.0,81,0.00,,,0.00,WUHU216HW,2013-08-30 15:16:00,
2013-08-30 11:17:00,73.2,67.0,29.90,SSE,158,0.0,0.0,81,0.00,,,0.00,WUHU216HW,2013-08-30 15:17:00,
2013-08-30 11:18:00,73.2,67.0,29.90,SSE,158,0.0,0.0,81,0.00,,,0.00,WUHU216HW,2013-08-30 15:18:00,
2013-08-30 11:20:00,78.9,68.3,29.77,North,0,0.0,0.0,70,0.00,,,0.00,WUHU216HW,2013-08-30 15:20:00,
2013-08-30 11:21:00,73.0,66.9,29.90,SSE,158,0.0,0.0,81,0.00,,,0.00,WUHU216HW,2013-08-30 15:21:00,
2013-08-30 11:22:00,73.0,66.9,29.90,SSE,158,0.0,0.0,81,0.00,,,0.00,WUHU216HW,2013-08-30 15:22:00,
2013-08-30 11:23:00,73.0,66.9,29.90,SSE,158,0.0,0.0,81,0.00,,,0.00,WUHU216HW,2013-08-30 15:23:00,
2013-08-30 11:24:00,73.0,66.9,29.90,SSE,158,0.0,0.0,81,0.00,,,0.00,WUHU216HW,2013-08-30 15:24:00,
2013-08-30 11:25:00,79.3,68.7,29.77,NNW,338,0.0,0.0,70,0.00,,,0.00,WUHU216HW,2013-08-30 15:25:00,
2013-08-30 11:26:00,73.0,66.9,29.90,SSE,158,0.0,0.0,81,0.00,,,0.00,WUHU216HW,2013-08-30 15:26:00,
2013-08-30 11:27:00,73.0,66.9,29.89,SSE,158,0.0,0.0,81,0.00,,,0.00,WUHU216HW,2013-08-30 15:27:00,
2013-08-30 11:28:00,73.0,66.9,29.90,SSE,158,0.0,0.0,81,0.00,,,0.00,WUHU216HW,2013-08-30 15:28:00,
2013-08-30 11:29:00,73.0,66.9,29.90,SSE,158,0.0,0.0,82,0.00,,,0.00,WUHU216HW,2013-08-30 15:29:00,
2013-08-30 11:30:00,80.4,68.9,29.76,NNE,23,0.0,0.0,68,0.00,,,0.00,WUHU216HW,2013-08-30 15:30:00,
2013-08-30 11:31:00,72.8,67.0,29.89,SSE,158,0.0,0.0,82,0.00,,,0.00,WUHU216HW,2013-08-30 15:31:00,
2013-08-30 11:32:00,72.6,66.8,29.89,SSE,158,0.0,0.0,82,0.00,,,0.00,WUHU216HW,2013-08-30 15:32:00,
2013-08-30 11:33:00,72.6,66.8,29.89,SSE,158,0.0,0.0,82,0.00,,,0.00,WUHU216HW,2013-08-30 15:33:00,
2013-08-30 11:34:00,72.6,66.8,29.90,SSE,158,0.0,0.0,82,0.00,,,0.00,WUHU216HW,2013-08-30 15:34:00,
2013-08-30 11:35:00,72.6,66.8,29.90,SSE,158,0.0,0.0,82,0.00,,,0.00,WUHU216HW,2013-08-30 15:35:00,
2013-08-30 11:36:00,80.9,69.4,29.76,NNE,23,0.0,0.0,68,0.00,,,0.00,WUHU216HW,2013-08-30 15:36:00,
2013-08-30 11:37:00,72.6,66.8,29.90,SSE,158,0.0,0.0,82,0.00,,,0.00,WUHU216HW,2013-08-30 15:37:00,
2013-08-30 11:38:00,72.6,66.8,29.90,SSE,158,0.0,0.0,82,0.00,,,0.00,WUHU216HW,2013-08-30 15:38:00,
2013-08-30 11:39:00,72.6,66.8,29.90,SSE,158,0.0,0.0,82,0.00,,,0.00,WUHU216HW,2013-08-30 15:39:00,
2013-08-30 11:40:00,72.6,66.8,29.90,SSE,158,0.0,0.0,82,0.00,,,0.00,WUHU216HW,2013-08-30 15:40:00,
2013-08-30 11:41:00,81.3,70.1,29.76,NNE,23,0.0,0.0,69,0.00,,,0.00,WUHU216HW,2013-08-30 15:41:00,
2013-08-30 11:42:00,72.6,66.8,29.90,SSE,158,0.0,0.0,82,0.00,,,0.00,WUHU216HW,2013-08-30 15:42:00,
2013-08-30 11:44:00,72.5,66.7,29.90,SSE,158,0.0,0.0,82,0.00,,,0.00,WUHU216HW,2013-08-30 15:44:00,
2013-08-30 11:45:00,72.5,66.7,29.89,SSE,158,0.0,0.0,82,0.00,,,0.00,WUHU216HW,2013-08-30 15:45:00,
2013-08-30 11:47:00,82.0,70.3,29.76,NNE,23,0.0,0.0,68,0.00,,,0.00,WUHU216HW,2013-08-30 15:47:00,
2013-08-30 11:50:00,72.5,66.7,29.90,SSE,158,0.0,0.0,82,0.00,,,0.00,WUHU216HW,2013-08-30 15:50:00,
2013-08-30 11:52:00,82.5,69.5,29.76,NNE,23,0.0,0.0,65,0.00,,,0.00,WUHU216HW,2013-08-30 15:52:00,
2013-08-30 11:54:00,72.3,66.8,29.89,SSE,158,0.0,0.0,83,0.00,,,0.00,WUHU216HW,2013-08-30 15:54:00,
2013-08-30 11:55:00,72.3,66.8,29.89,SSE,158,0.0,0.0,83,0.00,,,0.00,WUHU216HW,2013-08-30 15:55:00,
2013-08-30 11:56:00,72.3,66.8,29.89,SSE,158,0.0,0.0,83,0.00,,,0.00,WUHU216HW,2013-08-30 15:56:00,
2013-08-30 11:57:00,83.1,69.6,29.76,NNE,23,0.0,0.0,64,0.00,,,0.00,WUHU216HW,2013-08-30 15:57:00,
2013-08-30 11:58:00,72.1,66.6,29.89,SSE,158,0.0,0.0,83,0.00,,,0.00,WUHU216HW,2013-08-30 15:58:00,
2013-08-30 11:59:00,72.1,66.6,29.89,SSE,158,0.0,0.0,83,0.00,,,0.00,WUHU216HW,2013-08-30 15:59:00,
2013-08-30 12:01:00,72.1,66.6,29.89,SSE,158,0.0,0.0,83,0.00,,,0.00,WUHU216HW,2013-08-30 16:01:00,
2013-08-30 12:02:00,83.8,69.8,29.75,NNE,23,0.0,0.0,63,0.00,,,0.00,WUHU216HW,2013-08-30 16:02:00,
2013-08-30 12:03:00,72.1,66.6,29.89,SSE,158,0.0,0.0,83,0.00,,,0.00,WUHU216HW,2013-08-30 16:03:00,
2013-08-30 12:05:00,72.1,66.6,29.89,SSE,158,0.0,0.0,83,0.00,,,0.00,WUHU216HW,2013-08-30 16:05:00,
2013-08-30 12:06:00,72.1,66.6,29.89,SSE,158,0.0,0.0,83,0.00,,,0.00,WUHU216HW,2013-08-30 16:06:00,
2013-08-30 12:07:00,84.3,70.4,29.75,NE,45,0.0,0.0,63,0.00,,,0.00,WUHU216HW,2013-08-30 16:07:00,
2013-08-30 12:11:00,71.7,66.3,29.89,SSE,158,0.0,0.0,83,0.00,,,0.00,WUHU216HW,2013-08-30 16:11:00,
2013-08-30 12:12:00,84.9,70.9,29.75,NW,315,2.4,2.4,63,0.00,,,0.00,WUHU216HW,2013-08-30 16:12:00,
2013-08-30 12:13:00,71.7,66.3,29.89,SSE,158,0.0,0.0,83,0.00,,,0.00,WUHU216HW,2013-08-30 16:13:00,
2013-08-30 12:14:00,71.7,66.3,29.89,SSE,158,0.0,0.0,83,0.00,,,0.00,WUHU216HW,2013-08-30 16:14:00,
2013-08-30 12:16:00,71.6,66.1,29.89,SSE,158,0.0,0.0,83,0.00,,,0.00,WUHU216HW,2013-08-30 16:16:00,
2013-08-30 12:17:00,85.6,71.1,29.75,NNW,338,0.0,2.4,62,0.00,,,0.00,WUHU216HW,2013-08-30 16:17:00,
2013-08-30 12:18:00,71.6,66.1,29.89,SSE,158,0.0,0.0,83,0.00,,,0.00,WUHU216HW,2013-08-30 16:18:00,
2013-08-30 12:19:00,71.6,66.1,29.89,SSE,158,0.0,0.0,83,0.00,,,0.00,WUHU216HW,2013-08-30 16:19:00,
2013-08-30 12:20:00,71.6,66.1,29.89,SSE,158,0.0,0.0,83,0.00,,,0.00,WUHU216HW,2013-08-30 16:20:00,
2013-08-30 12:21:00,71.6,66.1,29.89,SSE,158,0.0,0.0,83,0.00,,,0.00,WUHU216HW,2013-08-30 16:21:00,
2013-08-30 12:22:00,85.8,70.8,29.75,NW,315,0.0,2.4,58,0.00,,,0.00,WUHU216HW,2013-08-30 16:22:00,
2013-08-30 12:23:00,71.4,65.9,29.89,SSE,158,0.0,0.0,83,0.00,,,0.00,WUHU216HW,2013-08-30 16:23:00,
2013-08-30 12:24:00,71.4,65.9,29.89,SSE,158,0.0,0.0,83,0.00,,,0.00,WUHU216HW,2013-08-30 16:24:00,
2013-08-30 12:25:00,71.4,65.9,29.89,SSE,158,0.0,0.0,83,0.00,,,0.00,WUHU216HW,2013-08-30 16:25:00,
2013-08-30 12:26:00,71.4,65.9,29.89,SSE,158,0.0,0.0,83,0.00,,,0.00,WUHU216HW,2013-08-30 16:26:00,
2013-08-30 12:27:00,86.1,69.1,29.74,NW,315,0.0,0.0,58,0.00,,,0.00,WUHU216HW,2013-08-30 16:27:00,
2013-08-30 12:28:00,71.4,65.9,29.89,SSE,158,0.0,0.0,83,0.00,,,0.00,WUHU216HW,2013-08-30 16:28:00,
2013-08-30 12:29:00,71.4,65.9,29.89,SSE,158,0.0,0.0,84,0.00,,,0.00,WUHU216HW,2013-08-30 16:29:00,
2013-08-30 12:30:00,71.4,65.9,29.89,SSE,158,0.0,0.0,84,0.00,,,0.00,WUHU216HW,2013-08-30 16:30:00,
2013-08-30 12:31:00,71.4,65.9,29.89,SSE,158,0.0,0.0,84,0.00,,,0.00,WUHU216HW,2013-08-30 16:31:00,
2013-08-30 12:32:00,86.7,70.7,29.74,SE,135,0.0,0.0,59,0.00,,,0.00,WUHU216HW,2013-08-30 16:32:00,
2013-08-30 12:33:00,71.4,65.9,29.89,SSE,158,0.0,0.0,84,0.00,,,0.00,WUHU216HW,2013-08-30 16:33:00,
2013-08-30 12:34:00,71.4,65.9,29.89,SSE,158,0.0,0.0,84,0.00,,,0.00,WUHU216HW,2013-08-30 16:34:00,
2013-08-30 12:35:00,71.4,65.9,29.89,SSE,158,0.0,0.0,84,0.00,,,0.00,WUHU216HW,2013-08-30 16:35:00,
2013-08-30 12:36:00,71.4,65.9,29.89,SSE,158,0.0,0.0,84,0.00,,,0.00,WUHU216HW,2013-08-30 16:36:00,
2013-08-30 12:38:00,86.9,70.8,29.74,NNE,23,0.0,0.0,59,0.00,,,0.00,WUHU216HW,2013-08-30 16:38:00,
2013-08-30 12:39:00,71.2,66.1,29.89,SSE,158,0.0,0.0,84,0.00,,,0.00,WUHU216HW,2013-08-30 16:39:00,
2013-08-30 12:40:00,71.2,66.1,29.89,SSE,158,0.0,0.0,84,0.00,,,0.00,WUHU216HW,2013-08-30 16:40:00,
2013-08-30 12:41:00,71.2,66.1,29.89,SSE,158,0.0,0.0,84,0.00,,,0.00,WUHU216HW,2013-08-30 16:41:00,
2013-08-30 12:42:00,71.2,66.1,29.89,SSE,158,0.0,0.0,84,0.00,,,0.00,WUHU216HW,2013-08-30 16:42:00,
2013-08-30 12:43:00,87.0,70.0,29.75,ENE,68,0.0,0.0,56,0.00,,,0.00,WUHU216HW,2013-08-30 16:43:00,
2013-08-30 12:44:00,71.2,66.1,29.89,SSE,158,0.0,0.0,84,0.00,,,0.00,WUHU216HW,2013-08-30 16:44:00,
2013-08-30 12:45:00,71.2,66.1,29.89,SSE,158,0.0,0.0,84,0.00,,,0.00,WUHU216HW,2013-08-30 16:45:00,
2013-08-30 12:46:00,71.2,66.1,29.89,SSE,158,0.0,0.0,84,0.00,,,0.00,WUHU216HW,2013-08-30 16:46:00,
2013-08-30 12:47:00,71.2,66.1,29.89,SSE,158,0.0,0.0,84,0.00,,,0.00,WUHU216HW,2013-08-30 16:47:00,
2013-08-30 12:48:00,87.6,69.9,29.74,NW,315,0.0,0.0,56,0.00,,,0.00,WUHU216HW,2013-08-30 16:48:00,
2013-08-30 12:49:00,71.2,66.1,29.89,SSE,158,0.0,0.0,84,0.00,,,0.00,WUHU216HW,2013-08-30 16:49:00,
2013-08-30 12:50:00,71.2,66.1,29.89,SSE,158,0.0,0.0,84,0.00,,,0.00,WUHU216HW,2013-08-30 16:50:00,
2013-08-30 12:51:00,71.2,66.1,29.89,SSE,158,0.0,0.0,84,0.00,,,0.00,WUHU216HW,2013-08-30 16:51:00,
2013-08-30 12:53:00,88.1,69.9,29.74,NW,315,0.0,0.0,55,0.00,,,0.00,WUHU216HW,2013-08-30 16:53:00,
2013-08-30 12:58:00,88.7,71.5,29.75,NNE,23,0.0,0.0,57,0.00,,,0.00,WUHU216HW,2013-08-30 16:58:00,
2013-08-30 13:04:00,88.8,70.5,29.74,NNE,23,0.0,0.0,52,0.00,,,0.00,WUHU216HW,2013-08-30 17:04:00,
2013-08-30 13:09:00,89.2,69.2,29.74,NNW,338,0.0,0.0,52,0.00,,,0.00,WUHU216HW,2013-08-30 17:09:00,
2013-08-30 13:14:00,89.2,69.2,29.73,WNW,293,1.7,1.7,50,0.00,,,0.00,WUHU216HW,2013-08-30 17:14:00,
2013-08-30 13:19:00,89.7,69.7,29.73,NW,315,0.0,1.7,52,0.00,,,0.00,WUHU216HW,2013-08-30 17:19:00,
2013-08-30 13:20:00,70.5,65.7,29.89,SSE,158,0.0,0.0,86,0.00,,,0.00,WUHU216HW,2013-08-30 17:20:00,
2013-08-30 13:21:00,70.5,65.7,29.89,SSE,158,0.0,0.0,86,0.00,,,0.00,WUHU216HW,2013-08-30 17:21:00,
2013-08-30 13:22:00,70.3,65.9,29.89,SSE,158,0.0,0.0,86,0.00,,,0.00,WUHU216HW,2013-08-30 17:22:00,
2013-08-30 13:23:00,70.3,65.9,29.89,SSE,158,0.0,0.0,86,0.00,,,0.00,WUHU216HW,2013-08-30 17:23:00,
2013-08-30 13:24:00,70.3,65.9,29.89,SSE,158,0.0,0.0,86,0.00,,,0.00,WUHU216HW,2013-08-30 17:24:00,
2013-08-30 13:25:00,90.5,71.5,29.73,North,0,0.0,0.0,54,0.00,,,0.00,WUHU216HW,2013-08-30 17:25:00,
2013-08-30 13:26:00,70.3,65.9,29.89,SSE,158,0.0,0.0,86,0.00,,,0.00,WUHU216HW,2013-08-30 17:26:00,
2013-08-30 13:27:00,70.3,65.9,29.89,SSE,158,0.0,0.0,86,0.00,,,0.00,WUHU216HW,2013-08-30 17:27:00,
2013-08-30 13:28:00,70.3,65.9,29.89,SSE,158,0.0,0.0,86,0.00,,,0.00,WUHU216HW,2013-08-30 17:28:00,
2013-08-30 13:29:00,70.3,65.9,29.89,SSE,158,0.0,0.0,86,0.00,,,0.00,WUHU216HW,2013-08-30 17:29:00,
2013-08-30 13:30:00,90.6,71.1,29.73,East,90,0.0,0.0,49,0.00,,,0.00,WUHU216HW,2013-08-30 17:30:00,
2013-08-30 13:32:00,70.1,65.7,29.89,SSE,158,0.0,0.0,86,0.00,,,0.00,WUHU216HW,2013-08-30 17:32:00,
2013-08-30 13:33:00,70.1,65.7,29.89,SSE,158,0.0,0.0,86,0.00,,,0.00,WUHU216HW,2013-08-30 17:33:00,
2013-08-30 13:34:00,70.1,65.7,29.89,SSE,158,0.0,0.0,86,0.00,,,0.00,WUHU216HW,2013-08-30 17:34:00,
2013-08-30 13:35:00,90.8,68.3,29.73,ESE,113,0.0,0.0,48,0.00,,,0.00,WUHU216HW,2013-08-30 17:35:00,
2013-08-30 13:36:00,70.1,65.7,29.89,SSE,158,0.0,0.0,86,0.00,,,0.00,WUHU216HW,2013-08-30 17:36:00,
2013-08-30 13:37:00,70.1,65.7,29.89,SSE,158,0.0,0.0,86,0.00,,,0.00,WUHU216HW,2013-08-30 17:37:00,
2013-08-30 13:40:00,91.0,69.1,29.73,ESE,113,0.0,0.0,51,0.00,,,0.00,WUHU216HW,2013-08-30 17:40:00,
2013-08-30 13:45:00,91.2,71.0,29.72,ESE,113,0.0,0.0,50,0.00,,,0.00,WUHU216HW,2013-08-30 17:45:00,
2013-08-30 13:50:00,91.5,71.4,29.72,NE,45,0.0,0.0,52,0.00,,,0.00,WUHU216HW,2013-08-30 17:50:00,
2013-08-30 13:55:00,91.5,71.4,29.72,NE,45,0.0,0.0,49,0.00,,,0.00,WUHU216HW,2013-08-30 17:55:00,
2013-08-30 14:01:00,91.7,69.1,29.72,NE,45,0.0,0.0,47,0.00,,,0.00,WUHU216HW,2013-08-30 18:01:00,
2013-08-30 14:06:00,91.5,69.0,29.72,ENE,68,0.0,0.0,48,0.00,,,0.00,WUHU216HW,2013-08-30 18:06:00,
2013-08-30 14:07:00,69.9,65.5,29.90,SSE,158,0.0,0.0,86,0.00,,,0.00,WUHU216HW,2013-08-30 18:07:00,
2013-08-30 14:08:00,69.9,65.5,29.90,SSE,158,0.0,0.0,86,0.00,,,0.00,WUHU216HW,2013-08-30 18:08:00,
2013-08-30 14:09:00,69.9,65.5,29.90,SSE,158,0.0,0.0,86,0.00,,,0.00,WUHU216HW,2013-08-30 18:09:00,
2013-08-30 14:10:00,69.8,65.3,29.90,SSE,158,0.0,0.0,86,0.00,,,0.00,WUHU216HW,2013-08-30 18:10:00,
2013-08-30 14:11:00,91.9,70.0,29.71,ENE,68,0.0,0.0,49,0.00,,,0.00,WUHU216HW,2013-08-30 18:11:00,
2013-08-30 14:12:00,69.8,65.3,29.90,SSE,158,0.0,0.0,86,0.00,,,0.00,WUHU216HW,2013-08-30 18:12:00,
2013-08-30 14:13:00,69.6,65.2,29.90,SSE,158,0.0,0.0,86,0.00,,,0.00,WUHU216HW,2013-08-30 18:13:00,
2013-08-30 14:14:00,69.6,65.2,29.90,SSE,158,0.0,0.0,86,0.00,,,0.00,WUHU216HW,2013-08-30 18:14:00,
2013-08-30 14:15:00,69.6,65.2,29.90,SSE,158,0.0,0.0,86,0.00,,,0.00,WUHU216HW,2013-08-30 18:15:00,
2013-08-30 14:16:00,92.1,70.1,29.71,ENE,68,0.0,0.0,47,0.00,,,0.00,WUHU216HW,2013-08-30 18:16:00,
2013-08-30 14:21:00,92.3,71.5,29.71,ENE,68,0.0,0.0,46,0.00,,,0.00,WUHU216HW,2013-08-30 18:21:00,
2013-08-30 14:26:00,91.9,68.7,29.70,ESE,113,0.0,0.0,46,0.00,,,0.00,WUHU216HW,2013-08-30 18:26:00,
2013-08-30 14:31:00,91.7,67.8,29.71,ENE,68,0.0,0.0,47,0.00,,,0.00,WUHU216HW,2013-08-30 18:31:00,
2013-08-30 14:36:00,91.4,67.5,29.70,SE,135,0.0,2.4,46,0.00,,,0.00,WUHU216HW,2013-08-30 18:36:00,
2013-08-30 14:41:00,91.0,67.8,29.70,NNE,23,0.0,2.4,48,0.00,,,0.00,WUHU216HW,2013-08-30 18:41:00,
2013-08-30 14:46:00,90.5,67.4,29.69,NNE,23,0.0,0.0,47,0.00,,,0.00,WUHU216HW,2013-08-30 18:46:00,
2013-08-30 14:51:00,90.3,67.2,29.69,NNW,338,0.0,0.0,47,0.00,,,0.00,WUHU216HW,2013-08-30 18:51:00,
2013-08-30 14:56:00,89.4,67.7,29.69,NNW,338,0.0,0.0,49,0.00,,,0.00,WUHU216HW,2013-08-30 18:56:00,
2013-08-30 15:02:00,89.4,67.7,29.69,NNW,338,0.0,0.0,49,0.00,,,0.00,WUHU216HW,2013-08-30 19:02:00,
2013-08-30 15:07:00,89.4,67.7,29.69,North,0,0.0,0.0,50,0.00,,,0.00,WUHU216HW,2013-08-30 19:07:00,
2013-08-30 15:09:00,69.0,65.0,29.90,SSE,158,0.0,0.0,87,0.00,,,0.00,WUHU216HW,2013-08-30 19:09:00,
2013-08-30 15:10:00,69.0,65.0,29.90,SSE,158,0.0,0.0,87,0.00,,,0.00,WUHU216HW,2013-08-30 19:10:00,
2013-08-30 15:11:00,69.0,65.0,29.91,SSE,158,0.0,0.0,87,0.00,,,0.00,WUHU216HW,2013-08-30 19:11:00,
2013-08-30 15:12:00,89.2,67.5,29.69,NNE,23,0.0,0.0,49,0.00,,,0.00,WUHU216HW,2013-08-30 19:12:00,
2013-08-30 15:13:00,69.0,65.0,29.91,SSE,158,0.0,0.0,87,0.00,,,0.00,WUHU216HW,2013-08-30 19:13:00,
2013-08-30 15:14:00,69.0,65.0,29.91,SSE,158,0.0,0.0,87,0.00,,,0.00,WUHU216HW,2013-08-30 19:14:00,
2013-08-30 15:15:00,69.0,65.0,29.90,SSE,158,0.0,0.0,87,0.00,,,0.00,WUHU216HW,2013-08-30 19:15:00,
2013-08-30 15:16:00,69.0,65.0,29.91,SSE,158,0.0,0.0,87,0.00,,,0.00,WUHU216HW,2013-08-30 19:16:00,
2013-08-30 15:17:00,89.2,67.5,29.69,North,0,0.0,0.0,49,0.00,,,0.00,WUHU216HW,2013-08-30 19:17:00,
2013-08-30 15:18:00,69.0,65.0,29.90,SSE,158,0.0,0.0,87,0.00,,,0.00,WUHU216HW,2013-08-30 19:18:00,
2013-08-30 15:19:00,68.9,64.8,29.91,SSE,158,0.0,0.0,87,0.00,,,0.00,WUHU216HW,2013-08-30 19:19:00,
2013-08-30 15:20:00,68.9,64.8,29.91,SSE,158,0.0,0.0,87,0.00,,,0.00,WUHU216HW,2013-08-30 19:20:00,
2013-08-30 15:21:00,68.9,64.8,29.91,SSE,158,0.0,0.0,87,0.00,,,0.00,WUHU216HW,2013-08-30 19:21:00,
2013-08-30 15:22:00,88.8,67.8,29.68,North,0,0.0,0.0,50,0.00,,,0.00,WUHU216HW,2013-08-30 19:22:00,
2013-08-30 15:23:00,68.9,64.8,29.91,SSE,158,0.0,0.0,87,0.00,,,0.00,WUHU216HW,2013-08-30 19:23:00,
2013-08-30 15:24:00,69.0,65.0,29.91,SSE,158,0.0,0.0,87,0.00,,,0.00,WUHU216HW,2013-08-30 19:24:00,
2013-08-30 15:25:00,69.0,65.0,29.91,SSE,158,0.0,0.0,87,0.00,,,0.00,WUHU216HW,2013-08-30 19:25:00,
2013-08-30 15:27:00,88.7,67.7,29.68,NNE,23,0.0,0.0,50,0.00,,,0.00,WUHU216HW,2013-08-30 19:27:00,
2013-08-30 15:32:00,88.5,66.2,29.68,NNE,23,0.0,0.0,49,0.00,,,0.00,WUHU216HW,2013-08-30 19:32:00,
2013-08-30 15:37:00,88.5,66.2,29.68,North,0,0.0,0.0,50,0.00,,,0.00,WUHU216HW,2013-08-30 19:37:00,
2013-08-30 15:42:00,88.3,67.4,29.68,NNE,23,0.0,0.0,50,0.00,,,0.00,WUHU216HW,2013-08-30 19:42:00,
2013-08-30 15:47:00,88.1,67.2,29.68,North,0,0.0,0.0,50,0.00,,,0.00,WUHU216HW,2013-08-30 19:47:00,
2013-08-30 15:53:00,87.4,66.5,29.68,North,0,0.0,0.0,50,0.00,,,0.00,WUHU216HW,2013-08-30 19:53:00,
2013-08-30 15:58:00,87.0,66.8,29.68,North,0,0.0,0.0,51,0.00,,,0.00,WUHU216HW,2013-08-30 19:58:00,
2013-08-30 16:04:00,87.0,66.8,29.67,North,0,0.0,0.0,51,0.00,,,0.00,WUHU216HW,2013-08-30 20:04:00,
2013-08-30 16:09:00,86.9,66.6,29.67,North,0,0.0,0.0,51,0.00,,,0.00,WUHU216HW,2013-08-30 20:09:00,
2013-08-30 16:14:00,87.0,66.8,29.67,North,0,0.0,0.0,51,0.00,,,0.00,WUHU216HW,2013-08-30 20:14:00,
2013-08-30 16:19:00,87.0,66.8,29.66,North,0,0.0,0.0,51,0.00,,,0.00,WUHU216HW,2013-08-30 20:19:00,
2013-08-30 16:24:00,87.0,66.8,29.66,North,0,0.0,0.0,51,0.00,,,0.00,WUHU216HW,2013-08-30 20:24:00,
2013-08-30 16:29:00,87.4,67.1,29.67,NNW,338,0.0,0.0,51,0.00,,,0.00,WUHU216HW,2013-08-30 20:29:00,
2013-08-30 16:34:00,87.2,66.9,29.66,NNW,338,0.0,0.0,51,0.00,,,0.00,WUHU216HW,2013-08-30 20:34:00,
2013-08-30 16:39:00,87.4,67.1,29.66,North,0,0.0,0.0,51,0.00,,,0.00,WUHU216HW,2013-08-30 20:39:00,
2013-08-30 16:44:00,71.0,66.9,29.92,SSE,158,0.0,0.0,86,0.00,,,0.00,WUHU216HW,2013-08-30 20:44:00,
2013-08-30 16:45:00,87.4,67.1,29.66,SE,135,0.0,0.0,50,0.00,,,0.00,WUHU216HW,2013-08-30 20:45:00,
2013-08-30 16:46:00,71.2,66.8,29.92,SSE,158,0.0,0.0,86,0.00,,,0.00,WUHU216HW,2013-08-30 20:46:00,
2013-08-30 16:47:00,71.2,66.8,29.92,SSE,158,0.0,0.0,87,0.00,,,0.00,WUHU216HW,2013-08-30 20:47:00,
2013-08-30 16:48:00,71.2,66.8,29.92,SSE,158,0.0,0.0,87,0.00,,,0.00,WUHU216HW,2013-08-30 20:48:00,
2013-08-30 16:49:00,71.2,66.8,29.92,SSE,158,0.0,0.0,87,0.00,,,0.00,WUHU216HW,2013-08-30 20:49:00,
2013-08-30 16:50:00,87.2,66.4,29.66,SE,135,0.0,0.0,51,0.00,,,0.00,WUHU216HW,2013-08-30 20:50:00,
2013-08-30 16:51:00,71.4,66.9,29.92,SSE,158,0.0,0.0,86,0.00,,,0.00,WUHU216HW,2013-08-30 20:51:00,
2013-08-30 16:52:00,71.4,66.9,29.92,SSE,158,0.0,0.0,86,0.00,,,0.00,WUHU216HW,2013-08-30 20:52:00,
2013-08-30 16:53:00,71.7,67.0,29.92,SSE,158,0.0,0.0,85,0.00,,,0.00,WUHU216HW,2013-08-30 20:53:00,
2013-08-30 16:54:00,71.7,67.0,29.92,SSE,158,0.0,0.0,85,0.00,,,0.00,WUHU216HW,2013-08-30 20:54:00,
2013-08-30 16:55:00,87.4,66.5,29.66,SE,135,0.0,0.0,50,0.00,,,0.00,WUHU216HW,2013-08-30 20:55:00,
2013-08-30 16:56:00,71.7,67.0,29.92,SSE,158,0.0,0.0,85,0.00,,,0.00,WUHU216HW,2013-08-30 20:56:00,
2013-08-30 17:00:00,87.0,66.8,29.65,SE,135,0.0,0.0,51,0.00,,,0.00,WUHU216HW,2013-08-30 21:00:00,
2013-08-30 17:05:00,87.0,66.8,29.66,SE,135,0.0,0.0,51,0.00,,,0.00,WUHU216HW,2013-08-30 21:05:00,
2013-08-30 17:09:00,72.6,67.5,29.92,SSE,158,0.0,0.0,83,0.00,,,0.00,WUHU216HW,2013-08-30 21:09:00,
2013-08-30 17:10:00,72.6,67.5,29.92,SSE,158,0.0,0.0,83,0.00,,,0.00,WUHU216HW,2013-08-30 21:10:00,
2013-08-30 17:11:00,87.0,66.8,29.66,SE,135,0.0,0.0,52,0.00,,,0.00,WUHU216HW,2013-08-30 21:11:00,
2013-08-30 17:12:00,72.8,67.4,29.92,SSE,158,0.0,0.0,83,0.00,,,0.00,WUHU216HW,2013-08-30 21:12:00,
2013-08-30 17:13:00,73.0,67.5,29.92,SSE,158,0.0,0.0,83,0.00,,,0.00,WUHU216HW,2013-08-30 21:13:00,
2013-08-30 17:15:00,73.2,67.7,29.92,SSE,158,0.0,0.0,83,0.00,,,0.00,WUHU216HW,2013-08-30 21:15:00,
2013-08-30 17:16:00,87.0,66.8,29.66,SE,135,0.0,0.0,53,0.00,,,0.00,WUHU216HW,2013-08-30 21:16:00,
2013-08-30 17:18:00,73.2,67.7,29.92,SSE,158,0.0,0.0,83,0.00,,,0.00,WUHU216HW,2013-08-30 21:18:00,
2013-08-30 17:21:00,87.0,66.8,29.66,SE,135,0.0,0.0,50,0.00,,,0.00,WUHU216HW,2013-08-30 21:21:00,
2013-08-30 17:22:00,73.5,67.7,29.92,SSE,158,0.0,0.0,82,0.00,,,0.00,WUHU216HW,2013-08-30 21:22:00,
2013-08-30 17:25:00,73.7,67.6,29.92,SSE,158,0.0,0.0,81,0.00,,,0.00,WUHU216HW,2013-08-30 21:25:00,
2013-08-30 17:26:00,87.0,66.8,29.66,SE,135,0.0,0.0,51,0.00,,,0.00,WUHU216HW,2013-08-30 21:26:00,
2013-08-30 17:27:00,73.9,68.1,29.92,SSE,158,0.0,0.0,82,0.00,,,0.00,WUHU216HW,2013-08-30 21:27:00,
2013-08-30 17:28:00,74.1,68.3,29.92,SSE,158,0.0,0.0,82,0.00,,,0.00,WUHU216HW,2013-08-30 21:28:00,
2013-08-30 17:29:00,74.1,68.3,29.92,SSE,158,0.0,0.0,82,0.00,,,0.00,WUHU216HW,2013-08-30 21:29:00,
2013-08-30 17:31:00,86.9,67.7,29.66,WSW,248,0.0,0.0,53,0.00,,,0.00,WUHU216HW,2013-08-30 21:31:00,
2013-08-30 17:33:00,74.3,68.1,29.92,South,180,0.0,0.0,81,0.00,,,0.00,WUHU216HW,2013-08-30 21:33:00,
2013-08-30 17:35:00,74.4,68.3,29.92,South,180,0.0,0.0,81,0.00,,,0.00,WUHU216HW,2013-08-30 21:35:00,
2013-08-30 17:36:00,86.9,67.7,29.65,WSW,248,0.0,0.0,52,0.00,,,0.00,WUHU216HW,2013-08-30 21:36:00,
2013-08-30 17:37:00,74.4,68.3,29.92,SSE,158,0.0,0.0,81,0.00,,,0.00,WUHU216HW,2013-08-30 21:37:00,
2013-08-30 17:40:00,74.6,68.5,29.92,SSE,158,0.0,0.0,81,0.00,,,0.00,WUHU216HW,2013-08-30 21:40:00,
2013-08-30 17:41:00,86.7,67.0,29.65,WSW,248,0.0,0.0,52,0.00,,,0.00,WUHU216HW,2013-08-30 21:41:00,
2013-08-30 17:42:00,74.8,68.3,29.92,SSE,158,0.0,0.0,80,0.00,,,0.00,WUHU216HW,2013-08-30 21:42:00,
2013-08-30 17:46:00,86.7,67.0,29.65,SE,135,0.0,0.0,51,0.00,,,0.00,WUHU216HW,2013-08-30 21:46:00,
2013-08-30 17:51:00,86.5,66.8,29.65,SE,135,0.0,0.0,53,0.00,,,0.00,WUHU216HW,2013-08-30 21:51:00,
2013-08-30 17:54:00,75.7,69.2,29.92,SW,225,0.0,0.0,80,0.00,,,0.00,WUHU216HW,2013-08-30 21:54:00,
2013-08-30 17:55:00,75.7,69.2,29.92,SW,225,0.0,0.0,80,0.00,,,0.00,WUHU216HW,2013-08-30 21:55:00,
2013-08-30 17:56:00,86.3,67.2,29.65,SE,135,0.0,0.0,53,0.00,,,0.00,WUHU216HW,2013-08-30 21:56:00,
2013-08-30 17:57:00,75.7,69.2,29.92,SW,225,0.0,0.0,80,0.00,,,0.00,WUHU216HW,2013-08-30 21:57:00,
2013-08-30 17:58:00,75.9,68.9,29.92,SW,225,0.0,0.0,79,0.00,,,0.00,WUHU216HW,2013-08-30 21:58:00,
2013-08-30 17:59:00,75.9,68.9,29.92,SW,225,0.0,0.0,79,0.00,,,0.00,WUHU216HW,2013-08-30 21:59:00,
2013-08-30 18:00:00,76.2,68.9,29.92,SE,135,0.0,0.0,78,0.00,,,0.00,WUHU216HW,2013-08-30 22:00:00,
2013-08-30 18:01:00,76.2,68.9,29.92,SE,135,0.0,0.0,78,0.00,,,0.00,WUHU216HW,2013-08-30 22:01:00,
2013-08-30 18:02:00,86.1,67.0,29.65,SSE,158,0.0,0.0,53,0.00,,,0.00,WUHU216HW,2013-08-30 22:02:00,
2013-08-30 18:03:00,76.2,68.9,29.92,SE,135,0.0,0.0,78,0.00,,,0.00,WUHU216HW,2013-08-30 22:03:00,
2013-08-30 18:07:00,85.8,67.2,29.65,WSW,248,0.0,0.0,54,0.00,,,0.00,WUHU216HW,2013-08-30 22:07:00,
2013-08-30 18:09:00,76.8,69.4,29.92,SE,135,0.0,0.0,78,0.00,,,0.00,WUHU216HW,2013-08-30 22:09:00,
2013-08-30 18:12:00,85.6,66.5,29.66,SE,135,0.0,0.0,53,0.00,,,0.00,WUHU216HW,2013-08-30 22:12:00,
2013-08-30 18:14:00,77.1,69.7,29.92,ESE,113,0.0,0.0,78,0.00,,,0.00,WUHU216HW,2013-08-30 22:14:00,
2013-08-30 18:17:00,85.4,66.9,29.66,SE,135,0.0,0.0,54,0.00,,,0.00,WUHU216HW,2013-08-30 22:17:00,
2013-08-30 18:18:00,77.3,69.5,29.92,ESE,113,0.0,0.0,77,0.00,,,0.00,WUHU216HW,2013-08-30 22:18:00,
2013-08-30 18:20:00,77.5,69.7,29.92,ESE,113,0.0,0.0,77,0.00,,,0.00,WUHU216HW,2013-08-30 22:20:00,
2013-08-30 18:21:00,77.5,69.7,29.92,ESE,113,0.0,0.0,76,0.00,,,0.00,WUHU216HW,2013-08-30 22:21:00,
2013-08-30 18:22:00,85.2,66.7,29.65,SE,135,0.0,0.0,54,0.00,,,0.00,WUHU216HW,2013-08-30 22:22:00,
2013-08-30 18:23:00,77.5,69.7,29.92,ESE,113,0.0,0.0,76,0.00,,,0.00,WUHU216HW,2013-08-30 22:23:00,
2013-08-30 18:25:00,77.7,69.5,29.92,ESE,113,0.0,0.0,76,0.00,,,0.00,WUHU216HW,2013-08-30 22:25:00,
2013-08-30 18:27:00,85.1,66.5,29.66,ENE,68,0.0,0.0,55,0.00,,,0.00,WUHU216HW,2013-08-30 22:27:00,
2013-08-30 18:28:00,78.0,69.8,29.92,ESE,113,0.0,0.0,76,0.00,,,0.00,WUHU216HW,2013-08-30 22:28:00,
2013-08-30 18:31:00,78.4,69.8,29.91,SE,135,0.0,0.0,75,0.00,,,0.00,WUHU216HW,2013-08-30 22:31:00,
2013-08-30 18:32:00,85.1,66.5,29.65,ENE,68,0.0,0.0,55,0.00,,,0.00,WUHU216HW,2013-08-30 22:32:00,
2013-08-30 18:33:00,78.4,69.8,29.92,SE,135,0.0,0.0,75,0.00,,,0.00,WUHU216HW,2013-08-30 22:33:00,
2013-08-30 18:36:00,78.6,69.2,29.92,SE,135,0.0,0.0,73,0.00,,,0.00,WUHU216HW,2013-08-30 22:36:00,
2013-08-30 18:37:00,84.9,66.9,29.66,ENE,68,0.0,0.0,55,0.00,,,0.00,WUHU216HW,2013-08-30 22:37:00,
2013-08-30 18:42:00,84.9,66.9,29.66,ESE,113,0.0,0.0,55,0.00,,,0.00,WUHU216HW,2013-08-30 22:42:00,
2013-08-30 18:43:00,78.9,69.5,29.92,SE,135,0.0,0.0,73,0.00,,,0.00,WUHU216HW,2013-08-30 22:43:00,
2013-08-30 18:46:00,79.1,69.3,29.92,NE,45,0.0,0.0,72,0.00,,,0.00,WUHU216HW,2013-08-30 22:46:00,
2013-08-30 18:48:00,84.9,66.9,29.66,SSE,158,0.0,0.0,55,0.00,,,0.00,WUHU216HW,2013-08-30 22:48:00,
2013-08-30 18:53:00,84.7,66.7,29.66,SSE,158,0.0,0.0,55,0.00,,,0.00,WUHU216HW,2013-08-30 22:53:00,
2013-08-30 18:57:00,79.3,69.1,29.92,East,90,0.0,0.0,71,0.00,,,0.00,WUHU216HW,2013-08-30 22:57:00,
2013-08-30 18:58:00,84.5,67.1,29.66,SSE,158,0.0,0.0,56,0.00,,,0.00,WUHU216HW,2013-08-30 22:58:00,
2013-08-30 18:59:00,79.1,68.9,29.92,ESE,113,0.0,0.0,71,0.00,,,0.00,WUHU216HW,2013-08-30 22:59:00,
2013-08-30 19:01:00,79.3,69.1,29.92,ESE,113,0.0,0.0,71,0.00,,,0.00,WUHU216HW,2013-08-30 23:01:00,
2013-08-30 19:02:00,79.3,69.1,29.92,ESE,113,0.0,0.0,71,0.00,,,0.00,WUHU216HW,2013-08-30 23:02:00,
2013-08-30 19:03:00,84.3,67.4,29.66,SSE,158,0.0,0.0,57,0.00,,,0.00,WUHU216HW,2013-08-30 23:03:00,
2013-08-30 19:05:00,79.5,68.9,29.92,ESE,113,0.0,0.0,70,0.00,,,0.00,WUHU216HW,2013-08-30 23:05:00,
2013-08-30 19:07:00,79.7,69.0,29.92,ESE,113,0.0,0.0,70,0.00,,,0.00,WUHU216HW,2013-08-30 23:07:00,
2013-08-30 19:08:00,84.2,67.3,29.66,SSE,158,0.0,0.0,57,0.00,,,0.00,WUHU216HW,2013-08-30 23:08:00,
2013-08-30 19:13:00,84.0,67.1,29.66,SSE,158,0.0,0.0,58,0.00,,,0.00,WUHU216HW,2013-08-30 23:13:00,
2013-08-30 19:14:00,80.0,69.8,29.92,East,90,0.0,0.0,71,0.00,,,0.00,WUHU216HW,2013-08-30 23:14:00,
2013-08-30 19:16:00,80.2,70.0,29.92,East,90,0.0,0.0,71,0.00,,,0.00,WUHU216HW,2013-08-30 23:16:00,
2013-08-30 19:17:00,80.2,70.0,29.92,East,90,0.0,0.0,71,0.00,,,0.00,WUHU216HW,2013-08-30 23:17:00,
2013-08-30 19:18:00,83.8,67.4,29.66,SSE,158,0.0,0.0,58,0.00,,,0.00,WUHU216HW,2013-08-30 23:18:00,
2013-08-30 19:19:00,80.2,70.0,29.92,East,90,0.0,0.0,70,0.00,,,0.00,WUHU216HW,2013-08-30 23:19:00,
2013-08-30 19:23:00,83.6,67.3,29.66,SSE,158,0.0,0.0,58,0.00,,,0.00,WUHU216HW,2013-08-30 23:23:00,
2013-08-30 19:25:00,80.0,68.9,29.92,ESE,113,0.0,0.0,69,0.00,,,0.00,WUHU216HW,2013-08-30 23:25:00,
2013-08-30 19:27:00,80.4,69.3,29.92,ESE,113,0.0,0.0,69,0.00,,,0.00,WUHU216HW,2013-08-30 23:27:00,
2013-08-30 19:28:00,83.3,67.4,29.66,SSE,158,0.0,0.0,59,0.00,,,0.00,WUHU216HW,2013-08-30 23:28:00,
2013-08-30 19:29:00,80.7,69.2,29.92,ESE,113,0.0,0.0,68,0.00,,,0.00,WUHU216HW,2013-08-30 23:29:00,
2013-08-30 19:32:00,81.3,69.7,29.92,ESE,113,0.0,0.0,68,0.00,,,0.00,WUHU216HW,2013-08-30 23:32:00,
2013-08-30 19:33:00,83.1,67.8,29.67,SSE,158,0.0,0.0,60,0.00,,,0.00,WUHU216HW,2013-08-30 23:33:00,
2013-08-30 19:36:00,81.6,70.0,29.91,SE,135,0.0,0.0,68,0.00,,,0.00,WUHU216HW,2013-08-30 23:36:00,
2013-08-30 19:37:00,82.0,69.4,29.92,SE,135,0.0,0.0,66,0.00,,,0.00,WUHU216HW,2013-08-30 23:37:00,
2013-08-30 19:38:00,82.9,67.6,29.66,SE,135,0.0,0.0,60,0.00,,,0.00,WUHU216HW,2013-08-30 23:38:00,
2013-08-30 19:39:00,82.0,69.4,29.91,SE,135,0.0,0.0,66,0.00,,,0.00,WUHU216HW,2013-08-30 23:39:00,
2013-08-30 19:40:00,82.0,69.4,29.91,SE,135,0.0,0.0,65,0.00,,,0.00,WUHU216HW,2013-08-30 23:40:00,
2013-08-30 19:41:00,82.0,69.4,29.91,SE,135,0.0,0.0,66,0.00,,,0.00,WUHU216HW,2013-08-30 23:41:00,
2013-08-30 19:42:00,82.0,69.4,29.91,SE,135,0.0,0.0,66,0.00,,,0.00,WUHU216HW,2013-08-30 23:42:00,
2013-08-30 19:43:00,82.7,67.4,29.67,SE,135,0.0,0.0,60,0.00,,,0.00,WUHU216HW,2013-08-30 23:43:00,
2013-08-30 19:44:00,82.0,69.4,29.90,SE,135,0.0,0.0,66,0.00,,,0.00,WUHU216HW,2013-08-30 23:44:00,
2013-08-30 19:45:00,82.0,69.4,29.90,SE,135,0.0,0.0,66,0.00,,,0.00,WUHU216HW,2013-08-30 23:45:00,
2013-08-30 19:46:00,82.2,70.0,29.91,SE,135,0.0,0.0,67,0.00,,,0.00,WUHU216HW,2013-08-30 23:46:00,
2013-08-30 19:48:00,82.5,67.2,29.67,SE,135,0.0,0.0,60,0.00,,,0.00,WUHU216HW,2013-08-30 23:48:00,
2013-08-30 19:53:00,82.2,66.9,29.66,SE,135,0.0,0.0,60,0.00,,,0.00,WUHU216HW,2013-08-30 23:53:00,
2013-08-30 19:58:00,82.0,67.2,29.67,SE,135,0.0,0.0,61,0.00,,,0.00,WUHU216HW,2013-08-30 23:58:00,
2013-08-30 20:04:00,82.0,67.2,29.66,SE,135,0.0,0.0,61,0.00,,,0.00,WUHU216HW,2013-08-31 00:04:00,
2013-08-30 20:05:00,84.9,71.3,29.90,WNW,293,0.0,0.0,64,0.00,,,0.00,WUHU216HW,2013-08-31 00:05:00,
2013-08-30 20:06:00,84.9,71.3,29.90,WNW,293,0.0,0.0,64,0.00,,,0.00,WUHU216HW,2013-08-31 00:06:00,
2013-08-30 20:07:00,84.9,71.3,29.90,WNW,293,0.0,0.0,64,0.00,,,0.00,WUHU216HW,2013-08-31 00:07:00,
2013-08-30 20:08:00,85.1,71.5,29.90,WNW,293,0.0,0.0,64,0.00,,,0.00,WUHU216HW,2013-08-31 00:08:00,
2013-08-30 20:09:00,81.6,66.9,29.67,SE,135,0.0,0.0,61,0.00,,,0.00,WUHU216HW,2013-08-31 00:09:00,
2013-08-30 20:10:00,85.6,71.1,29.90,NW,315,0.0,0.0,62,0.00,,,0.00,WUHU216HW,2013-08-31 00:10:00,
2013-08-30 20:11:00,85.6,71.1,29.90,NW,315,0.0,0.0,62,0.00,,,0.00,WUHU216HW,2013-08-31 00:11:00,
2013-08-30 20:12:00,85.6,71.1,29.90,SW,225,0.0,0.0,62,0.00,,,0.00,WUHU216HW,2013-08-31 00:12:00,
2013-08-30 20:13:00,85.6,71.1,29.90,SW,225,0.0,0.0,62,0.00,,,0.00,WUHU216HW,2013-08-31 00:13:00,
2013-08-30 20:14:00,81.5,66.7,29.67,SE,135,0.0,0.0,61,0.00,,,0.00,WUHU216HW,2013-08-31 00:14:00,
2013-08-30 20:15:00,85.8,70.8,29.90,SE,135,0.0,0.0,61,0.00,,,0.00,WUHU216HW,2013-08-31 00:15:00,
2013-08-30 20:16:00,85.8,70.8,29.90,SSE,158,0.0,0.0,60,0.00,,,0.00,WUHU216HW,2013-08-31 00:16:00,
2013-08-30 20:19:00,81.3,67.0,29.67,SE,135,0.0,0.0,62,0.00,,,0.00,WUHU216HW,2013-08-31 00:19:00,
2013-08-30 20:24:00,81.1,67.3,29.67,SE,135,0.0,0.0,63,0.00,,,0.00,WUHU216HW,2013-08-31 00:24:00,
2013-08-30 20:29:00,80.9,66.7,29.68,SE,135,0.0,0.0,63,0.00,,,0.00,WUHU216HW,2013-08-31 00:29:00,
2013-08-30 20:34:00,80.7,66.9,29.68,SE,135,0.0,0.0,63,0.00,,,0.00,WUHU216HW,2013-08-31 00:34:00,
2013-08-30 20:39:00,80.6,67.2,29.68,SE,135,0.0,0.0,64,0.00,,,0.00,WUHU216HW,2013-08-31 00:39:00,
2013-08-30 20:44:00,88.3,71.7,29.89,NNE,23,0.0,0.0,58,0.00,,,0.00,WUHU216HW,2013-08-31 00:44:00,
2013-08-30 20:45:00,80.4,67.1,29.68,SE,135,0.0,0.0,64,0.00,,,0.00,WUHU216HW,2013-08-31 00:45:00,
2013-08-30 20:46:00,88.5,72.4,29.89,NNW,338,0.0,0.0,59,0.00,,,0.00,WUHU216HW,2013-08-31 00:46:00,
2013-08-30 20:47:00,88.5,72.4,29.89,NNW,338,0.0,0.0,59,0.00,,,0.00,WUHU216HW,2013-08-31 00:47:00,
2013-08-30 20:48:00,88.8,73.2,29.89,North,0,0.0,0.0,60,0.00,,,0.00,WUHU216HW,2013-08-31 00:48:00,
2013-08-30 20:49:00,88.8,73.2,29.89,North,0,0.0,0.0,60,0.00,,,0.00,WUHU216HW,2013-08-31 00:49:00,
2013-08-30 20:50:00,80.2,66.9,29.68,SE,135,0.0,0.0,65,0.00,,,0.00,WUHU216HW,2013-08-31 00:50:00,
2013-08-30 20:51:00,89.2,73.0,29.89,North,0,0.0,0.0,59,0.00,,,0.00,WUHU216HW,2013-08-31 00:51:00,
2013-08-30 20:52:00,89.2,73.0,29.89,North,0,0.0,0.0,59,0.00,,,0.00,WUHU216HW,2013-08-31 00:52:00,
2013-08-30 20:54:00,89.6,72.8,29.89,North,0,0.6,0.6,58,0.00,,,0.00,WUHU216HW,2013-08-31 00:54:00,
2013-08-30 20:55:00,80.0,67.2,29.69,SE,135,0.0,0.0,65,0.00,,,0.00,WUHU216HW,2013-08-31 00:55:00,
2013-08-30 20:56:00,89.7,73.0,29.89,North,0,0.0,0.6,58,0.00,,,0.00,WUHU216HW,2013-08-31 00:56:00,
2013-08-30 20:57:00,90.1,72.2,29.89,North,0,0.0,0.6,56,0.00,,,0.00,WUHU216HW,2013-08-31 00:57:00,
2013-08-30 21:00:00,79.8,67.0,29.68,SE,135,0.0,0.0,66,0.00,,,0.00,WUHU216HW,2013-08-31 01:00:00,
2013-08-30 21:05:00,79.7,67.3,29.69,SE,135,0.0,0.0,66,0.00,,,0.00,WUHU216HW,2013-08-31 01:05:00,
2013-08-30 21:10:00,79.5,67.1,29.69,SE,135,0.0,0.0,66,0.00,,,0.00,WUHU216HW,2013-08-31 01:10:00,
2013-08-30 21:15:00,79.3,66.9,29.69,SE,135,0.0,0.0,67,0.00,,,0.00,WUHU216HW,2013-08-31 01:15:00,
2013-08-30 21:21:00,79.1,67.2,29.69,SE,135,0.0,0.0,67,0.00,,,0.00,WUHU216HW,2013-08-31 01:21:00,
2013-08-30 21:26:00,78.9,67.0,29.68,SE,135,0.0,0.0,67,0.00,,,0.00,WUHU216HW,2013-08-31 01:26:00,
2013-08-30 21:31:00,78.6,67.1,29.69,SE,135,0.0,0.0,68,0.00,,,0.00,WUHU216HW,2013-08-31 01:31:00,
2013-08-30 21:36:00,78.6,67.1,29.69,SE,135,0.0,0.0,68,0.00,,,0.00,WUHU216HW,2013-08-31 01:36:00,
2013-08-30 21:41:00,78.4,66.9,29.68,SE,135,0.0,0.0,68,0.00,,,0.00,WUHU216HW,2013-08-31 01:41:00,
2013-08-30 21:44:00,92.1,72.4,29.87,SE,135,1.1,1.1,53,0.00,,,0.00,WUHU216HW,2013-08-31 01:44:00,
2013-08-30 21:45:00,92.1,72.4,29.87,SE,135,1.1,1.1,53,0.00,,,0.00,WUHU216HW,2013-08-31 01:45:00,
2013-08-30 21:46:00,78.4,66.9,29.69,SE,135,0.0,0.0,69,0.00,,,0.00,WUHU216HW,2013-08-31 01:46:00,
2013-08-30 21:51:00,78.2,67.2,29.68,SE,135,0.0,0.0,69,0.00,,,0.00,WUHU216HW,2013-08-31 01:51:00,
2013-08-30 21:56:00,78.0,67.0,29.69,SE,135,0.0,0.0,69,0.00,,,0.00,WUHU216HW,2013-08-31 01:56:00,
2013-08-30 21:57:00,92.1,71.3,29.86,SE,135,0.0,2.4,51,0.00,,,0.00,WUHU216HW,2013-08-31 01:57:00,
2013-08-30 21:58:00,92.1,71.3,29.86,SE,135,0.0,2.4,51,0.00,,,0.00,WUHU216HW,2013-08-31 01:58:00,
2013-08-30 22:01:00,78.0,67.0,29.68,SE,135,0.0,0.0,69,0.00,,,0.00,WUHU216HW,2013-08-31 02:01:00,
2013-08-30 22:02:00,91.5,71.9,29.86,ESE,113,0.0,2.4,53,0.00,,,0.00,WUHU216HW,2013-08-31 02:02:00,
2013-08-30 22:03:00,91.5,71.9,29.86,ESE,113,0.0,2.4,53,0.00,,,0.00,WUHU216HW,2013-08-31 02:03:00,
2013-08-30 22:04:00,91.9,72.2,29.86,ESE,113,2.0,2.4,53,0.00,,,0.00,WUHU216HW,2013-08-31 02:04:00,
2013-08-30 22:05:00,91.9,72.2,29.86,ESE,113,2.0,2.4,53,0.00,,,0.00,WUHU216HW,2013-08-31 02:05:00,
2013-08-30 22:06:00,91.7,71.5,29.86,East,90,0.0,2.4,52,0.00,,,0.00,WUHU216HW,2013-08-31 02:06:00,
2013-08-30 22:07:00,77.9,66.9,29.68,SE,135,0.0,0.0,69,0.00,,,0.00,WUHU216HW,2013-08-31 02:07:00,
2013-08-30 22:08:00,92.1,72.9,29.86,ESE,113,0.0,2.0,54,0.00,,,0.00,WUHU216HW,2013-08-31 02:08:00,
2013-08-30 22:09:00,92.1,72.9,29.86,ESE,113,0.0,2.0,54,0.00,,,0.00,WUHU216HW,2013-08-31 02:09:00,
2013-08-30 22:10:00,92.4,71.1,29.86,SE,135,0.0,2.0,50,0.00,,,0.00,WUHU216HW,2013-08-31 02:10:00,
2013-08-30 22:11:00,92.4,71.1,29.86,SE,135,0.0,2.0,50,0.00,,,0.00,WUHU216HW,2013-08-31 02:11:00,
2013-08-30 22:12:00,77.7,67.2,29.68,SE,135,0.0,0.0,70,0.00,,,0.00,WUHU216HW,2013-08-31 02:12:00,
2013-08-30 22:13:00,92.3,71.5,29.86,ESE,113,0.0,2.0,51,0.00,,,0.00,WUHU216HW,2013-08-31 02:13:00,
2013-08-30 22:14:00,91.9,71.1,29.85,ESE,113,0.0,2.0,51,0.00,,,0.00,WUHU216HW,2013-08-31 02:14:00,
2013-08-30 22:15:00,91.9,71.1,29.85,ESE,113,0.0,0.0,51,0.00,,,0.00,WUHU216HW,2013-08-31 02:15:00,
2013-08-30 22:17:00,77.7,67.2,29.68,SE,135,0.0,0.0,70,0.00,,,0.00,WUHU216HW,2013-08-31 02:17:00,
2013-08-30 22:19:00,92.4,71.6,29.85,SE,135,0.0,0.0,51,0.00,,,0.00,WUHU216HW,2013-08-31 02:19:00,
2013-08-30 22:20:00,92.4,71.6,29.85,SE,135,0.0,0.0,51,0.00,,,0.00,WUHU216HW,2013-08-31 02:20:00,
2013-08-30 22:21:00,92.4,71.6,29.85,West,270,0.0,0.0,52,0.00,,,0.00,WUHU216HW,2013-08-31 02:21:00,
2013-08-30 22:22:00,77.5,67.0,29.68,SE,135,0.0,0.0,70,0.00,,,0.00,WUHU216HW,2013-08-31 02:22:00,
2013-08-30 22:23:00,92.4,71.6,29.85,West,270,0.0,0.0,51,0.00,,,0.00,WUHU216HW,2013-08-31 02:23:00,
2013-08-30 22:24:00,92.4,71.6,29.85,West,270,0.0,0.0,51,0.00,,,0.00,WUHU216HW,2013-08-31 02:24:00,
2013-08-30 22:25:00,92.1,71.9,29.85,West,270,0.0,0.0,52,0.00,,,0.00,WUHU216HW,2013-08-31 02:25:00,
2013-08-30 22:26:00,92.1,71.9,29.85,West,270,0.0,0.0,52,0.00,,,0.00,WUHU216HW,2013-08-31 02:26:00,
2013-08-30 22:27:00,77.5,67.0,29.68,SE,135,0.0,0.0,70,0.00,,,0.00,WUHU216HW,2013-08-31 02:27:00,
2013-08-30 22:28:00,91.5,70.8,29.85,WSW,248,0.0,0.0,51,0.00,,,0.00,WUHU216HW,2013-08-31 02:28:00,
2013-08-30 22:29:00,91.0,71.4,29.85,WSW,248,0.0,0.0,53,0.00,,,0.00,WUHU216HW,2013-08-31 02:29:00,
2013-08-30 22:30:00,91.0,71.4,29.85,WSW,248,0.0,0.0,53,0.00,,,0.00,WUHU216HW,2013-08-31 02:30:00,
2013-08-30 22:32:00,77.3,66.8,29.68,SE,135,0.0,0.0,70,0.00,,,0.00,WUHU216HW,2013-08-31 02:32:00,
2013-08-30 22:37:00,77.1,66.7,29.68,SE,135,0.0,0.0,70,0.00,,,0.00,WUHU216HW,2013-08-31 02:37:00,
2013-08-30 22:40:00,90.1,70.6,29.84,SW,225,0.0,0.0,53,0.00,,,0.00,WUHU216HW,2013-08-31 02:40:00,
2013-08-30 22:41:00,90.1,70.6,29.84,SW,225,0.0,0.0,53,0.00,,,0.00,WUHU216HW,2013-08-31 02:41:00,
2013-08-30 22:42:00,77.1,66.7,29.68,SE,135,0.0,0.0,71,0.00,,,0.00,WUHU216HW,2013-08-31 02:42:00,
2013-08-30 22:43:00,89.9,69.9,29.84,SSW,203,0.0,0.0,52,0.00,,,0.00,WUHU216HW,2013-08-31 02:43:00,
2013-08-30 22:44:00,89.9,69.9,29.84,SSW,203,0.0,0.0,52,0.00,,,0.00,WUHU216HW,2013-08-31 02:44:00,
2013-08-30 22:45:00,89.7,69.2,29.84,SSW,203,0.0,0.0,51,0.00,,,0.00,WUHU216HW,2013-08-31 02:45:00,
2013-08-30 22:46:00,89.7,69.2,29.84,SSW,203,0.0,0.0,51,0.00,,,0.00,WUHU216HW,2013-08-31 02:46:00,
2013-08-30 22:47:00,76.8,66.7,29.68,SE,135,0.0,0.0,71,0.00,,,0.00,WUHU216HW,2013-08-31 02:47:00,
2013-08-30 22:48:00,89.2,68.7,29.84,SSE,158,0.0,0.0,51,0.00,,,0.00,WUHU216HW,2013-08-31 02:48:00,
2013-08-30 22:50:00,89.2,68.7,29.84,SSE,158,0.0,0.0,51,0.00,,,0.00,WUHU216HW,2013-08-31 02:50:00,
2013-08-30 22:51:00,89.2,68.7,29.84,SSE,158,0.0,0.0,52,0.00,,,0.00,WUHU216HW,2013-08-31 02:51:00,
2013-08-30 22:52:00,76.8,66.7,29.68,SE,135,0.0,0.0,71,0.00,,,0.00,WUHU216HW,2013-08-31 02:52:00,
2013-08-30 22:57:00,76.6,66.9,29.68,SE,135,0.0,0.0,72,0.00,,,0.00,WUHU216HW,2013-08-31 02:57:00,
2013-08-30 23:02:00,76.6,66.9,29.68,SE,135,0.0,0.0,72,0.00,,,0.00,WUHU216HW,2013-08-31 03:02:00,
2013-08-30 23:07:00,76.6,66.9,29.68,SE,135,0.0,0.0,72,0.00,,,0.00,WUHU216HW,2013-08-31 03:07:00,
2013-08-30 23:13:00,76.2,66.6,29.68,SE,135,0.0,0.0,72,0.00,,,0.00,WUHU216HW,2013-08-31 03:13:00,
2013-08-30 23:18:00,76.2,66.6,29.68,SE,135,0.0,0.0,72,0.00,,,0.00,WUHU216HW,2013-08-31 03:18:00,
2013-08-30 23:23:00,76.2,66.6,29.68,SE,135,0.0,0.0,72,0.00,,,0.00,WUHU216HW,2013-08-31 03:23:00,
2013-08-30 23:28:00,76.1,66.4,29.68,SE,135,0.0,0.0,72,0.00,,,0.00,WUHU216HW,2013-08-31 03:28:00,
2013-08-30 23:33:00,76.1,66.4,29.68,SE,135,0.0,0.0,73,0.00,,,0.00,WUHU216HW,2013-08-31 03:33:00,
2013-08-30 23:38:00,75.9,66.6,29.68,SE,135,0.0,0.0,73,0.00,,,0.00,WUHU216HW,2013-08-31 03:38:00,
2013-08-30 23:43:00,75.9,66.6,29.68,SE,135,0.0,0.0,72,0.00,,,0.00,WUHU216HW,2013-08-31 03:43:00,
2013-08-30 23:48:00,75.7,66.4,29.68,SE,135,0.0,0.0,73,0.00,,,0.00,WUHU216HW,2013-08-31 03:48:00,
2013-08-30 23:53:00,75.7,66.4,29.68,SE,135,0.0,0.0,73,0.00,,,0.00,WUHU216HW,2013-08-31 03:53:00,
2013-08-30 23:58:00,75.5,66.2,29.68,SE,135,0.0,0.0,73,0.00,,,0.00,WUHU216HW,2013-08-31 03:58:00,
2013-08-30 23:59:00,86.7,71.7,29.83,SW,225,0.0,0.4,61,0.00,,,0.00,WUHU216HW,2013-08-31 03:59:00,